Time,TemperatureF,DewpointF,PressureIn,WindDirection,WindDirectionDegrees,WindSpeedMPH,WindSpeedGustMPH,Humidity,HourlyPrecipIn,Conditions,Clouds,dailyrainin,SoftwareType,DateUTC
2013-09-12 00:01:00,59.4,54.5,28.79,NNW,338,1.6,1.6,84,0.00,CLR,,0.00,WeatherDisplay:10.37,2013-09-12 05:01:00,
2013-09-12 00:02:00,59.4,54.5,28.79,NNW,338,1.2,1.4,84,0.00,CLR,,0.00,WeatherDisplay:10.37,2013-09-12 05:02:00,
2013-09-12 00:03:00,59.2,54.3,28.79,NNW,338,0.0,0.0,84,0.00,CLR,,0.00,WeatherDisplay:10.37,2013-09-12 05:03:00,
2013-09-12 00:06:00,59.2,54.3,28.79,NNW,338,0.0,0.0,84,0.00,CLR,,0.00,WeatherDisplay:10.37,2013-09-12 05:06:00,
2013-09-12 00:07:00,59.0,54.2,28.79,NNW,338,0.0,0.0,84,0.00,CLR,,0.00,WeatherDisplay:10.37,2013-09-12 05:07:00,
2013-09-12 00:08:00,59.0,54.2,28.79,NNW,338,0.0,0.0,84,0.00,CLR,,0.00,WeatherDisplay:10.37,2013-09-12 05:08:00,
2013-09-12 00:09:00,59.0,54.2,28.79,NNW,338,0.0,0.0,84,0.00,CLR,,0.00,WeatherDisplay:10.37,2013-09-12 05:09:00,
2013-09-12 00:11:00,58.8,54.3,28.79,NNW,338,0.0,0.0,85,0.00,CLR,,0.00,WeatherDisplay:10.37,2013-09-12 05:11:00,
2013-09-12 00:12:00,58.8,54.3,28.79,NNW,338,0.0,0.0,85,0.00,CLR,,0.00,WeatherDisplay:10.37,2013-09-12 05:12:00,
2013-09-12 00:13:00,58.8,54.3,28.79,NNW,338,0.0,0.0,85,0.00,CLR,,0.00,WeatherDisplay:10.37,2013-09-12 05:13:00,
2013-09-12 00:14:00,58.6,54.1,28.79,NNW,338,0.0,0.0,85,0.00,CLR,,0.00,WeatherDisplay:10.37,2013-09-12 05:14:00,
2013-09-12 00:15:00,58.5,54.0,28.79,NNW,338,0.0,0.0,85,0.00,CLR,,0.00,WeatherDisplay:10.37,2013-09-12 05:15:00,
2013-09-12 00:16:00,58.5,54.0,28.79,NNW,338,0.0,0.0,85,0.00,CLR,,0.00,WeatherDisplay:10.37,2013-09-12 05:16:00,
2013-09-12 00:17:00,58.5,54.0,28.79,NNW,338,0.0,0.0,85,0.00,CLR,,0.00,WeatherDisplay:10.37,2013-09-12 05:17:00,
2013-09-12 00:18:00,58.3,53.8,28.79,NNW,338,0.0,0.0,85,0.00,CLR,,0.00,WeatherDisplay:10.37,2013-09-12 05:18:00,
2013-09-12 00:19:00,58.3,53.8,28.79,NNW,338,1.4,1.4,85,0.00,CLR,,0.00,WeatherDisplay:10.37,2013-09-12 05:19:00,
2013-09-12 00:20:00,58.3,53.8,28.79,NNW,338,1.6,1.6,85,0.00,CLR,,0.00,WeatherDisplay:10.37,2013-09-12 05:20:00,
2013-09-12 00:22:00,58.1,53.6,28.79,NNW,338,2.3,2.3,85,0.00,CLR,,0.00,WeatherDisplay:10.37,2013-09-12 05:22:00,
2013-09-12 00:23:00,58.1,53.6,28.79,NW,315,2.3,2.3,85,0.00,CLR,,0.00,WeatherDisplay:10.37,2013-09-12 05:23:00,
2013-09-12 00:25:00,58.1,53.6,28.82,WNW,292,2.3,2.3,85,0.00,CLR,,0.00,WeatherDisplay:10.37,2013-09-12 05:25:00,
2013-09-12 00:26:00,58.1,53.6,28.82,NW,315,2.4,2.4,85,0.00,CLR,,0.00,WeatherDisplay:10.37,2013-09-12 05:26:00,
2013-09-12 00:27:00,58.1,53.6,28.82,NW,315,2.4,2.4,85,0.00,CLR,,0.00,WeatherDisplay:10.37,2013-09-12 05:27:00,
2013-09-12 00:28:00,58.1,53.6,28.82,NW,315,2.3,2.3,85,0.00,CLR,,0.00,WeatherDisplay:10.37,2013-09-12 05:28:00,
2013-09-12 00:29:00,58.1,53.9,28.82,NW,315,1.2,1.4,86,0.00,CLR,,0.00,WeatherDisplay:10.37,2013-09-12 05:29:00,
2013-09-12 00:30:00,57.9,53.8,28.82,NW,315,1.2,0.0,86,0.00,CLR,,0.00,WeatherDisplay:10.37,2013-09-12 05:30:00,
2013-09-12 00:32:00,57.9,54.1,28.82,NW,315,0.0,0.0,87,0.00,CLR,,0.00,WeatherDisplay:10.37,2013-09-12 05:32:00,
2013-09-12 00:33:00,57.7,53.9,28.82,NW,315,0.0,0.0,87,0.00,CLR,,0.00,WeatherDisplay:10.37,2013-09-12 05:33:00,
2013-09-12 00:35:00,57.7,53.6,28.82,NW,315,0.0,0.0,86,0.00,CLR,,0.00,WeatherDisplay:10.37,2013-09-12 05:35:00,
2013-09-12 00:36:00,57.6,53.4,28.82,NW,315,0.0,0.0,86,0.00,CLR,,0.00,WeatherDisplay:10.37,2013-09-12 05:36:00,
2013-09-12 00:37:00,57.6,53.7,28.82,NW,315,0.0,0.0,87,0.00,CLR,,0.00,WeatherDisplay:10.37,2013-09-12 05:37:00,
2013-09-12 00:38:00,57.6,53.7,28.82,NW,315,0.0,0.0,87,0.00,CLR,,0.00,WeatherDisplay:10.37,2013-09-12 05:38:00,
2013-09-12 00:39:00,57.4,53.5,28.82,NW,315,0.0,0.0,87,0.00,CLR,,0.00,WeatherDisplay:10.37,2013-09-12 05:39:00,
2013-09-12 00:40:00,57.4,53.5,28.79,NW,315,0.0,0.0,87,0.00,CLR,,0.00,WeatherDisplay:10.37,2013-09-12 05:40:00,
2013-09-12 00:41:00,57.4,53.5,28.79,NW,315,0.0,0.0,87,0.00,CLR,,0.00,WeatherDisplay:10.37,2013-09-12 05:41:00,
2013-09-12 00:43:00,57.4,53.5,28.79,NW,315,0.0,0.0,87,0.00,CLR,,0.00,WeatherDisplay:10.37,2013-09-12 05:43:00,
2013-09-12 00:44:00,57.2,53.4,28.79,NW,315,0.0,0.0,87,0.00,CLR,,0.00,WeatherDisplay:10.37,2013-09-12 05:44:00,
2013-09-12 00:45:00,57.2,53.4,28.79,NW,315,1.4,1.4,87,0.00,CLR,,0.00,WeatherDisplay:10.37,2013-09-12 05:45:00,
2013-09-12 00:46:00,57.2,53.4,28.79,NW,315,1.2,1.2,87,0.00,CLR,,0.00,WeatherDisplay:10.37,2013-09-12 05:46:00,
2013-09-12 00:48:00,57.0,53.2,28.79,NW,315,0.0,0.0,87,0.00,CLR,,0.00,WeatherDisplay:10.37,2013-09-12 05:48:00,
2013-09-12 00:49:00,57.0,53.2,28.79,NW,315,0.0,0.0,87,0.00,CLR,,0.00,WeatherDisplay:10.37,2013-09-12 05:49:00,
2013-09-12 00:51:00,57.0,53.2,28.79,NW,315,1.2,0.0,87,0.00,CLR,,0.00,WeatherDisplay:10.37,2013-09-12 05:51:00,
2013-09-12 00:53:00,56.8,53.3,28.79,NW,315,0.0,0.0,88,0.00,CLR,,0.00,WeatherDisplay:10.37,2013-09-12 05:53:00,
2013-09-12 00:55:00,56.8,53.3,28.79,NW,315,1.2,0.0,88,0.00,CLR,,0.00,WeatherDisplay:10.37,2013-09-12 05:55:00,
2013-09-12 00:56:00,56.8,53.3,28.79,NW,315,1.4,1.4,88,0.00,CLR,,0.00,WeatherDisplay:10.37,2013-09-12 05:56:00,
2013-09-12 00:57:00,56.8,53.3,28.79,NW,315,1.4,1.4,88,0.00,CLR,,0.00,WeatherDisplay:10.37,2013-09-12 05:57:00,
2013-09-12 00:58:00,56.7,53.1,28.79,West,270,1.2,1.2,88,0.00,CLR,,0.00,WeatherDisplay:10.37,2013-09-12 05:58:00,
2013-09-12 01:00:00,56.7,53.1,28.79,WNW,292,1.2,0.0,88,0.00,CLR,,0.00,WeatherDisplay:10.37,2013-09-12 06:00:00,
2013-09-12 01:01:00,56.7,53.1,28.79,WNW,292,1.2,1.2,88,0.00,CLR,,0.00,WeatherDisplay:10.37,2013-09-12 06:01:00,
2013-09-12 01:03:00,56.7,53.1,28.79,WNW,292,1.2,1.2,88,0.00,CLR,,0.00,WeatherDisplay:10.37,2013-09-12 06:03:00,
2013-09-12 01:05:00,56.5,53.0,28.79,WNW,292,0.0,0.0,88,0.00,CLR,,0.00,WeatherDisplay:10.37,2013-09-12 06:05:00,
2013-09-12 01:06:00,56.5,53.0,28.79,WNW,292,0.0,0.0,88,0.00,CLR,,0.00,WeatherDisplay:10.37,2013-09-12 06:06:00,
2013-09-12 01:08:00,56.3,52.8,28.79,WNW,292,0.0,0.0,88,0.00,CLR,,0.00,WeatherDisplay:10.37,2013-09-12 06:08:00,
2013-09-12 01:09:00,56.3,52.8,28.79,WNW,292,0.0,0.0,88,0.00,CLR,,0.00,WeatherDisplay:10.37,2013-09-12 06:09:00,
2013-09-12 01:10:00,56.3,52.8,28.76,WNW,292,0.0,0.0,88,0.00,CLR,,0.00,WeatherDisplay:10.37,2013-09-12 06:10:00,
2013-09-12 01:13:00,56.3,52.8,28.76,NNW,338,2.3,2.3,88,0.00,CLR,,0.00,WeatherDisplay:10.37,2013-09-12 06:13:00,
2013-09-12 01:14:00,56.3,52.8,28.76,NNW,338,1.2,0.0,88,0.00,CLR,,0.00,WeatherDisplay:10.37,2013-09-12 06:14:00,
2013-09-12 01:15:00,56.1,52.9,28.76,NNW,338,1.2,0.0,89,0.00,CLR,,0.00,WeatherDisplay:10.37,2013-09-12 06:15:00,
2013-09-12 01:18:00,55.9,52.7,28.76,NNW,338,0.0,0.0,89,0.00,CLR,,0.00,WeatherDisplay:10.37,2013-09-12 06:18:00,
2013-09-12 01:19:00,55.9,52.7,28.76,NNW,338,0.0,0.0,89,0.00,CLR,,0.00,WeatherDisplay:10.37,2013-09-12 06:19:00,
2013-09-12 01:20:00,55.9,52.7,28.76,NNW,338,0.0,0.0,89,0.00,CLR,,0.00,WeatherDisplay:10.37,2013-09-12 06:20:00,
2013-09-12 01:23:00,55.8,52.6,28.76,NNW,338,0.0,0.0,89,0.00,CLR,,0.00,WeatherDisplay:10.37,2013-09-12 06:23:00,
2013-09-12 01:24:00,55.8,52.6,28.76,NNW,338,0.0,0.0,89,0.00,CLR,,0.00,WeatherDisplay:10.37,2013-09-12 06:24:00,
2013-09-12 01:26:00,55.8,52.6,28.79,NNW,338,0.0,0.0,89,0.00,CLR,,0.00,WeatherDisplay:10.37,2013-09-12 06:26:00,
2013-09-12 01:29:00,55.6,52.4,28.79,NNW,338,0.0,0.0,89,0.00,CLR,,0.00,WeatherDisplay:10.37,2013-09-12 06:29:00,
2013-09-12 01:30:00,55.6,52.4,28.79,NNW,338,0.0,0.0,89,0.00,CLR,,0.00,WeatherDisplay:10.37,2013-09-12 06:30:00,
2013-09-12 01:31:00,55.6,52.4,28.79,NNW,338,0.9,0.0,89,0.00,CLR,,0.00,WeatherDisplay:10.37,2013-09-12 06:31:00,
2013-09-12 01:33:00,55.6,52.4,28.79,NNW,338,1.2,0.0,89,0.00,CLR,,0.00,WeatherDisplay:10.37,2013-09-12 06:33:00,
2013-09-12 01:34:00,55.6,52.4,28.79,NNW,338,0.0,0.0,89,0.00,CLR,,0.00,WeatherDisplay:10.37,2013-09-12 06:34:00,
2013-09-12 01:35:00,55.6,52.4,28.79,NNW,338,0.0,0.0,89,0.00,CLR,,0.00,WeatherDisplay:10.37,2013-09-12 06:35:00,
2013-09-12 01:36:00,55.4,52.2,28.79,NNW,338,0.0,0.0,89,0.00,CLR,,0.00,WeatherDisplay:10.37,2013-09-12 06:36:00,
2013-09-12 01:39:00,55.4,52.2,28.79,NNW,338,0.0,0.0,89,0.00,CLR,,0.00,WeatherDisplay:10.37,2013-09-12 06:39:00,
2013-09-12 01:40:00,55.2,52.0,28.79,NNW,338,0.0,0.0,89,0.00,CLR,,0.00,WeatherDisplay:10.37,2013-09-12 06:40:00,
2013-09-12 01:41:00,55.2,52.0,28.79,NNW,338,0.0,0.0,89,0.00,CLR,,0.00,WeatherDisplay:10.37,2013-09-12 06:41:00,
2013-09-12 01:44:00,55.0,52.2,28.79,NNW,338,0.0,0.0,90,0.00,CLR,,0.00,WeatherDisplay:10.37,2013-09-12 06:44:00,
2013-09-12 01:45:00,55.0,52.2,28.79,NNW,338,0.0,0.0,90,0.00,CLR,,0.00,WeatherDisplay:10.37,2013-09-12 06:45:00,
2013-09-12 01:46:00,55.0,52.2,28.79,NNW,338,0.0,0.0,90,0.00,CLR,,0.00,WeatherDisplay:10.37,2013-09-12 06:46:00,
2013-09-12 01:47:00,55.0,52.2,28.79,NNW,338,0.0,0.0,90,0.00,CLR,,0.00,WeatherDisplay:10.37,2013-09-12 06:47:00,
2013-09-12 01:49:00,54.9,52.0,28.79,NNW,338,1.2,1.2,90,0.00,CLR,,0.00,WeatherDisplay:10.37,2013-09-12 06:49:00,
2013-09-12 01:50:00,54.9,52.0,28.79,NNW,338,1.2,1.2,90,0.00,CLR,,0.00,WeatherDisplay:10.37,2013-09-12 06:50:00,
2013-09-12 01:51:00,54.9,52.0,28.79,NNW,338,1.2,0.0,90,0.00,CLR,,0.00,WeatherDisplay:10.37,2013-09-12 06:51:00,
2013-09-12 01:52:00,54.9,52.0,28.79,NNW,338,0.0,0.0,90,0.00,CLR,,0.00,WeatherDisplay:10.37,2013-09-12 06:52:00,
2013-09-12 01:54:00,54.9,52.0,28.79,NNW,338,0.0,0.0,90,0.00,CLR,,0.00,WeatherDisplay:10.37,2013-09-12 06:54:00,
2013-09-12 01:55:00,54.9,52.0,28.79,NNW,338,0.0,0.0,90,0.00,CLR,,0.00,WeatherDisplay:10.37,2013-09-12 06:55:00,
2013-09-12 01:57:00,54.9,52.3,28.79,NNW,338,0.0,0.0,91,0.00,CLR,,0.00,WeatherDisplay:10.37,2013-09-12 06:57:00,
2013-09-12 01:58:00,54.9,52.3,28.79,NNW,338,0.0,0.0,91,0.00,CLR,,0.00,WeatherDisplay:10.37,2013-09-12 06:58:00,
2013-09-12 01:59:00,54.7,52.1,28.79,NNW,338,0.0,0.0,91,0.00,CLR,,0.00,WeatherDisplay:10.37,2013-09-12 06:59:00,
2013-09-12 02:00:00,54.7,52.1,28.79,NNW,338,0.0,0.0,91,0.00,CLR,,0.00,WeatherDisplay:10.37,2013-09-12 07:00:00,
2013-09-12 02:01:00,54.7,52.1,28.79,NNW,338,0.0,0.0,91,0.00,CLR,,0.00,WeatherDisplay:10.37,2013-09-12 07:01:00,
2013-09-12 02:03:00,54.7,52.1,28.79,NNW,338,0.0,0.0,91,0.00,CLR,,0.00,WeatherDisplay:10.37,2013-09-12 07:03:00,
2013-09-12 02:04:00,54.5,51.9,28.79,NNW,338,0.0,0.0,91,0.00,CLR,,0.00,WeatherDisplay:10.37,2013-09-12 07:04:00,
2013-09-12 02:05:00,54.5,51.9,28.79,NNW,338,0.0,0.0,91,0.00,CLR,,0.00,WeatherDisplay:10.37,2013-09-12 07:05:00,
2013-09-12 02:06:00,54.5,51.9,28.79,NNW,338,0.0,0.0,91,0.00,CLR,,0.00,WeatherDisplay:10.37,2013-09-12 07:06:00,
2013-09-12 02:08:00,54.5,51.9,28.79,NNW,338,0.0,0.0,91,0.00,CLR,,0.00,WeatherDisplay:10.37,2013-09-12 07:08:00,
2013-09-12 02:09:00,54.5,51.9,28.79,NNW,338,0.0,0.0,91,0.00,CLR,,0.00,WeatherDisplay:10.37,2013-09-12 07:09:00,
2013-09-12 02:10:00,54.5,51.9,28.79,NNW,338,0.0,0.0,91,0.00,CLR,,0.00,WeatherDisplay:10.37,2013-09-12 07:10:00,
2013-09-12 02:11:00,54.5,51.9,28.79,NNW,338,0.0,0.0,91,0.00,CLR,,0.00,WeatherDisplay:10.37,2013-09-12 07:11:00,
2013-09-12 02:13:00,54.3,51.7,28.79,NNW,338,0.0,0.0,91,0.00,CLR,,0.00,WeatherDisplay:10.37,2013-09-12 07:13:00,
2013-09-12 02:15:00,54.3,51.7,28.79,NNW,338,0.0,0.0,91,0.00,CLR,,0.00,WeatherDisplay:10.37,2013-09-12 07:15:00,
2013-09-12 02:18:00,54.3,51.7,28.79,NNW,338,0.0,0.0,91,0.00,CLR,,0.00,WeatherDisplay:10.37,2013-09-12 07:18:00,
2013-09-12 02:20:00,54.1,51.6,28.79,NNW,338,0.0,0.0,91,0.00,CLR,,0.00,WeatherDisplay:10.37,2013-09-12 07:20:00,
2013-09-12 02:21:00,54.1,51.6,28.79,NNW,338,0.0,0.0,91,0.00,CLR,,0.00,WeatherDisplay:10.37,2013-09-12 07:21:00,
2013-09-12 02:23:00,54.1,51.6,28.79,NNW,338,0.0,0.0,91,0.00,CLR,,0.00,WeatherDisplay:10.37,2013-09-12 07:23:00,
2013-09-12 02:24:00,54.1,51.6,28.79,NNW,338,0.0,0.0,91,0.00,CLR,,0.00,WeatherDisplay:10.37,2013-09-12 07:24:00,
2013-09-12 02:25:00,54.1,51.6,28.79,NNW,338,0.0,0.0,91,0.00,CLR,,0.00,WeatherDisplay:10.37,2013-09-12 07:25:00,
2013-09-12 02:27:00,54.1,51.9,28.79,NNW,338,0.0,0.0,92,0.00,CLR,,0.00,WeatherDisplay:10.37,2013-09-12 07:27:00,
2013-09-12 02:28:00,54.1,51.9,28.79,NNW,338,0.0,0.0,92,0.00,CLR,,0.00,WeatherDisplay:10.37,2013-09-12 07:28:00,
2013-09-12 02:29:00,54.0,51.7,28.79,NNW,338,0.0,0.0,92,0.00,CLR,,0.00,WeatherDisplay:10.37,2013-09-12 07:29:00,
2013-09-12 02:30:00,54.0,51.7,28.79,NNW,338,0.0,0.0,92,0.00,CLR,,0.00,WeatherDisplay:10.37,2013-09-12 07:30:00,
2013-09-12 02:31:00,54.0,51.7,28.79,NNW,338,1.4,1.4,92,0.00,CLR,,0.00,WeatherDisplay:10.37,2013-09-12 07:31:00,
2013-09-12 02:32:00,54.0,51.7,28.79,NNW,338,1.2,1.2,92,0.00,CLR,,0.00,WeatherDisplay:10.37,2013-09-12 07:32:00,
2013-09-12 02:34:00,53.8,51.2,28.79,NNW,338,0.0,0.0,91,0.00,CLR,,0.00,WeatherDisplay:10.37,2013-09-12 07:34:00,
2013-09-12 02:35:00,53.8,51.2,28.79,NNW,338,0.9,0.0,91,0.00,CLR,,0.00,WeatherDisplay:10.37,2013-09-12 07:35:00,
2013-09-12 02:36:00,53.8,51.2,28.79,NNW,338,1.2,0.0,91,0.00,CLR,,0.00,WeatherDisplay:10.37,2013-09-12 07:36:00,
2013-09-12 02:38:00,53.8,51.2,28.79,NNW,338,0.0,0.0,91,0.00,CLR,,0.00,WeatherDisplay:10.37,2013-09-12 07:38:00,
2013-09-12 02:39:00,53.8,51.2,28.79,NNW,338,0.0,0.0,91,0.00,CLR,,0.00,WeatherDisplay:10.37,2013-09-12 07:39:00,
2013-09-12 02:40:00,53.8,51.2,28.79,NNW,338,1.6,0.0,91,0.00,CLR,,0.00,WeatherDisplay:10.37,2013-09-12 07:40:00,
2013-09-12 02:41:00,53.8,51.2,28.79,NNW,338,1.2,1.2,91,0.00,CLR,,0.00,WeatherDisplay:10.37,2013-09-12 07:41:00,
2013-09-12 02:43:00,53.6,51.0,28.79,NNW,338,0.0,0.0,91,0.00,CLR,,0.00,WeatherDisplay:10.37,2013-09-12 07:43:00,
2013-09-12 02:44:00,53.6,51.0,28.79,NNW,338,0.0,0.0,91,0.00,CLR,,0.00,WeatherDisplay:10.37,2013-09-12 07:44:00,
2013-09-12 02:45:00,53.6,51.0,28.79,NNW,338,0.0,2.0,91,0.00,CLR,,0.00,WeatherDisplay:10.37,2013-09-12 07:45:00,
2013-09-12 02:46:00,53.6,51.0,28.79,NNW,338,0.0,0.0,91,0.00,CLR,,0.00,WeatherDisplay:10.37,2013-09-12 07:46:00,
2013-09-12 02:48:00,53.6,51.0,28.79,NNW,338,0.0,0.0,91,0.00,CLR,,0.00,WeatherDisplay:10.37,2013-09-12 07:48:00,
2013-09-12 02:49:00,53.6,51.0,28.79,WNW,292,0.0,0.0,91,0.00,CLR,,0.00,WeatherDisplay:10.37,2013-09-12 07:49:00,
2013-09-12 02:50:00,53.6,51.0,28.79,WNW,292,0.0,0.9,91,0.00,CLR,,0.00,WeatherDisplay:10.37,2013-09-12 07:50:00,
2013-09-12 02:51:00,53.6,51.0,28.79,WNW,292,0.0,0.9,91,0.00,CLR,,0.00,WeatherDisplay:10.37,2013-09-12 07:51:00,
2013-09-12 02:53:00,53.6,51.0,28.79,NW,315,0.9,0.0,91,0.00,CLR,,0.00,WeatherDisplay:10.37,2013-09-12 07:53:00,
2013-09-12 02:54:00,53.6,51.0,28.79,NW,315,1.2,0.0,91,0.00,CLR,,0.00,WeatherDisplay:10.37,2013-09-12 07:54:00,
2013-09-12 02:55:00,53.4,51.2,28.76,NW,315,0.0,0.0,92,0.00,CLR,,0.00,WeatherDisplay:10.37,2013-09-12 07:55:00,
2013-09-12 02:56:00,53.4,51.2,28.76,NW,315,0.0,0.0,92,0.00,CLR,,0.00,WeatherDisplay:10.37,2013-09-12 07:56:00,
2013-09-12 02:57:00,53.4,51.2,28.76,NW,315,0.0,0.0,92,0.00,CLR,,0.00,WeatherDisplay:10.37,2013-09-12 07:57:00,
2013-09-12 02:59:00,53.4,51.2,28.76,NW,315,2.3,2.3,92,0.00,CLR,,0.00,WeatherDisplay:10.37,2013-09-12 07:59:00,
2013-09-12 03:01:00,53.4,51.2,28.76,NW,315,2.3,2.3,92,0.00,CLR,,0.00,WeatherDisplay:10.37,2013-09-12 08:01:00,
2013-09-12 03:04:00,53.4,51.2,28.76,NW,315,0.0,0.0,92,0.00,CLR,,0.00,WeatherDisplay:10.37,2013-09-12 08:04:00,
2013-09-12 03:05:00,53.4,51.2,28.76,NW,315,0.0,0.0,92,0.00,CLR,,0.00,WeatherDisplay:10.37,2013-09-12 08:05:00,
2013-09-12 03:06:00,53.2,51.0,28.76,NW,315,0.0,0.0,92,0.00,CLR,,0.00,WeatherDisplay:10.37,2013-09-12 08:06:00,
2013-09-12 03:09:00,53.2,51.3,28.76,NW,315,0.0,0.0,93,0.00,CLR,,0.00,WeatherDisplay:10.37,2013-09-12 08:09:00,
2013-09-12 03:10:00,53.2,51.3,28.79,WNW,292,1.6,0.0,93,0.00,CLR,,0.00,WeatherDisplay:10.37,2013-09-12 08:10:00,
2013-09-12 03:11:00,53.2,51.0,28.79,WNW,292,2.4,2.4,92,0.00,CLR,,0.00,WeatherDisplay:10.37,2013-09-12 08:11:00,
2013-09-12 03:14:00,53.2,51.0,28.79,WNW,292,2.3,0.0,92,0.00,CLR,,0.00,WeatherDisplay:10.37,2013-09-12 08:14:00,
2013-09-12 03:15:00,53.2,51.0,28.79,WNW,292,0.0,0.0,92,0.00,CLR,,0.00,WeatherDisplay:10.37,2013-09-12 08:15:00,
2013-09-12 03:16:00,53.2,51.3,28.79,WNW,292,0.0,0.0,93,0.00,CLR,,0.00,WeatherDisplay:10.37,2013-09-12 08:16:00,
2013-09-12 03:20:00,53.1,51.1,28.79,WNW,292,0.0,0.0,93,0.00,CLR,,0.00,WeatherDisplay:10.37,2013-09-12 08:20:00,
2013-09-12 03:21:00,53.2,51.3,28.79,West,270,0.0,0.0,93,0.00,CLR,,0.00,WeatherDisplay:10.37,2013-09-12 08:21:00,
2013-09-12 03:25:00,53.6,51.6,28.79,South,180,2.3,2.3,93,0.00,CLR,,0.00,WeatherDisplay:10.37,2013-09-12 08:25:00,
2013-09-12 03:26:00,53.6,51.6,28.79,South,180,2.3,2.3,93,0.00,CLR,,0.00,WeatherDisplay:10.37,2013-09-12 08:26:00,
2013-09-12 03:27:00,53.6,51.6,28.79,South,180,1.2,0.0,93,0.00,CLR,,0.00,WeatherDisplay:10.37,2013-09-12 08:27:00,
2013-09-12 03:30:00,53.4,51.4,28.79,South,180,0.0,0.0,93,0.00,CLR,,0.00,WeatherDisplay:10.37,2013-09-12 08:30:00,
2013-09-12 03:32:00,53.4,51.4,28.79,South,180,0.0,0.0,93,0.00,CLR,,0.00,WeatherDisplay:10.37,2013-09-12 08:32:00,
2013-09-12 03:34:00,53.2,51.3,28.79,West,270,2.0,2.0,93,0.00,CLR,,0.00,WeatherDisplay:10.37,2013-09-12 08:34:00,
2013-09-12 03:36:00,53.4,51.4,28.79,West,270,2.3,2.3,93,0.00,CLR,,0.00,WeatherDisplay:10.37,2013-09-12 08:36:00,
2013-09-12 03:37:00,53.4,51.4,28.79,West,270,1.2,0.0,93,0.00,CLR,,0.00,WeatherDisplay:10.37,2013-09-12 08:37:00,
2013-09-12 03:38:00,53.4,51.4,28.79,West,270,0.0,0.0,93,0.00,CLR,,0.00,WeatherDisplay:10.37,2013-09-12 08:38:00,
2013-09-12 03:41:00,53.4,51.7,28.79,West,270,0.0,0.0,94,0.00,CLR,,0.00,WeatherDisplay:10.37,2013-09-12 08:41:00,
2013-09-12 03:42:00,53.4,51.7,28.79,West,270,0.0,0.0,94,0.00,CLR,,0.00,WeatherDisplay:10.37,2013-09-12 08:42:00,
2013-09-12 03:43:00,53.4,51.7,28.79,West,270,0.0,0.0,94,0.00,CLR,,0.00,WeatherDisplay:10.37,2013-09-12 08:43:00,
2013-09-12 03:46:00,53.2,51.6,28.79,West,270,0.0,0.0,94,0.00,CLR,,0.00,WeatherDisplay:10.37,2013-09-12 08:46:00,
2013-09-12 03:47:00,53.2,51.6,28.79,West,270,0.0,0.0,94,0.00,CLR,,0.00,WeatherDisplay:10.37,2013-09-12 08:47:00,
2013-09-12 03:51:00,53.1,51.4,28.79,West,270,1.2,0.0,94,0.00,CLR,,0.00,WeatherDisplay:10.37,2013-09-12 08:51:00,
2013-09-12 03:52:00,53.1,51.4,28.79,West,270,1.2,0.0,94,0.00,CLR,,0.00,WeatherDisplay:10.37,2013-09-12 08:52:00,
2013-09-12 03:53:00,53.1,51.4,28.79,NW,315,1.2,0.0,94,0.00,CLR,,0.00,WeatherDisplay:10.37,2013-09-12 08:53:00,
2013-09-12 03:57:00,53.4,51.7,28.79,NW,315,0.0,0.0,94,0.00,CLR,,0.00,WeatherDisplay:10.37,2013-09-12 08:57:00,
2013-09-12 03:58:00,53.2,51.6,28.79,NW,315,0.0,0.0,94,0.00,CLR,,0.00,WeatherDisplay:10.37,2013-09-12 08:58:00,
2013-09-12 03:59:00,53.2,51.6,28.79,WNW,292,2.4,2.4,94,0.00,CLR,,0.00,WeatherDisplay:10.37,2013-09-12 08:59:00,
2013-09-12 04:02:00,53.8,52.1,28.79,West,270,1.6,0.0,94,0.00,CLR,,0.00,WeatherDisplay:10.37,2013-09-12 09:02:00,
2013-09-12 04:03:00,54.0,52.3,28.79,WNW,292,1.2,0.0,94,0.00,CLR,,0.00,WeatherDisplay:10.37,2013-09-12 09:03:00,
2013-09-12 04:04:00,54.3,52.6,28.79,NNW,338,2.3,2.3,94,0.00,CLR,,0.00,WeatherDisplay:10.37,2013-09-12 09:04:00,
2013-09-12 04:07:00,54.5,53.1,28.79,West,270,1.2,1.2,95,0.00,CLR,,0.00,WeatherDisplay:10.37,2013-09-12 09:07:00,
2013-09-12 04:08:00,54.5,53.1,28.79,West,270,2.3,2.3,95,0.00,CLR,,0.00,WeatherDisplay:10.37,2013-09-12 09:08:00,
2013-09-12 04:09:00,54.9,53.5,28.79,West,270,3.5,3.5,95,0.00,CLR,,0.00,WeatherDisplay:10.37,2013-09-12 09:09:00,
2013-09-12 04:13:00,55.6,54.5,28.79,WSW,248,2.3,2.3,96,0.00,CLR,,0.00,WeatherDisplay:10.37,2013-09-12 09:13:00,
2013-09-12 04:15:00,55.9,55.1,28.79,NW,315,3.5,3.5,97,0.00,CLR,,0.00,WeatherDisplay:10.37,2013-09-12 09:15:00,
2013-09-12 04:17:00,55.8,54.9,28.79,West,270,2.3,2.3,97,0.00,CLR,,0.00,WeatherDisplay:10.37,2013-09-12 09:17:00,
2013-09-12 04:18:00,55.8,54.9,28.79,WNW,292,2.3,2.3,97,0.00,CLR,,0.00,WeatherDisplay:10.37,2013-09-12 09:18:00,
2013-09-12 04:21:00,55.8,54.6,28.79,West,270,1.2,1.2,96,0.00,CLR,,0.00,WeatherDisplay:10.37,2013-09-12 09:21:00,
2013-09-12 04:22:00,55.8,54.6,28.79,NW,315,1.2,1.2,96,0.00,CLR,,0.00,WeatherDisplay:10.37,2013-09-12 09:22:00,
2013-09-12 04:23:00,55.8,54.6,28.79,West,270,0.0,0.0,96,0.00,CLR,,0.00,WeatherDisplay:10.37,2013-09-12 09:23:00,
2013-09-12 04:26:00,56.1,55.0,28.79,West,270,1.2,0.0,96,0.00,CLR,,0.00,WeatherDisplay:10.37,2013-09-12 09:26:00,
2013-09-12 04:27:00,56.1,55.0,28.79,NNW,338,1.6,1.6,96,0.00,CLR,,0.00,WeatherDisplay:10.37,2013-09-12 09:27:00,
2013-09-12 04:28:00,56.1,55.0,28.79,NNW,338,3.5,3.5,96,0.00,CLR,,0.00,WeatherDisplay:10.37,2013-09-12 09:28:00,
2013-09-12 04:29:00,56.1,55.0,28.79,North,0,3.5,3.5,96,0.00,CLR,,0.00,WeatherDisplay:10.37,2013-09-12 09:29:00,
2013-09-12 04:31:00,56.3,55.5,28.79,WNW,292,4.6,4.6,97,0.00,CLR,,0.00,WeatherDisplay:10.37,2013-09-12 09:31:00,
2013-09-12 04:33:00,56.7,55.8,28.79,WSW,248,3.5,3.5,97,0.00,CLR,,0.00,WeatherDisplay:10.37,2013-09-12 09:33:00,
2013-09-12 04:34:00,57.0,56.2,28.79,West,270,5.9,5.9,97,0.00,CLR,,0.00,WeatherDisplay:10.37,2013-09-12 09:34:00,
2013-09-12 04:36:00,57.4,56.8,28.79,NW,315,3.5,3.5,98,0.00,CLR,,0.00,WeatherDisplay:10.37,2013-09-12 09:36:00,
2013-09-12 04:38:00,57.7,57.2,28.79,North,0,4.6,4.6,98,0.00,CLR,,0.00,WeatherDisplay:10.37,2013-09-12 09:38:00,
2013-09-12 04:39:00,57.7,57.2,28.79,WNW,292,4.6,4.6,98,0.00,CLR,,0.00,WeatherDisplay:10.37,2013-09-12 09:39:00,
2013-09-12 04:41:00,58.1,57.5,28.76,NNW,338,4.6,4.6,98,0.00,CLR,,0.00,WeatherDisplay:10.37,2013-09-12 09:41:00,
2013-09-12 04:43:00,58.3,57.7,28.76,WNW,292,4.6,4.6,98,0.00,CLR,,0.00,WeatherDisplay:10.37,2013-09-12 09:43:00,
2013-09-12 04:44:00,58.3,57.7,28.76,WSW,248,2.6,2.6,98,0.00,CLR,,0.00,WeatherDisplay:10.37,2013-09-12 09:44:00,
2013-09-12 04:46:00,58.6,58.1,28.76,NW,315,6.4,6.4,98,0.00,CLR,,0.00,WeatherDisplay:10.37,2013-09-12 09:46:00,
2013-09-12 04:48:00,58.8,58.3,28.76,NW,315,6.9,6.9,98,0.00,CLR,,0.00,WeatherDisplay:10.37,2013-09-12 09:48:00,
2013-09-12 04:49:00,59.0,58.2,28.76,ENE,68,5.8,5.8,97,0.00,CLR,,0.00,WeatherDisplay:10.37,2013-09-12 09:49:00,
2013-09-12 04:50:00,59.2,57.7,28.76,WNW,292,5.8,5.8,95,0.00,CLR,,0.00,WeatherDisplay:10.37,2013-09-12 09:50:00,
2013-09-12 04:51:00,59.4,57.3,28.76,NW,315,4.6,4.6,93,0.00,CLR,,0.00,WeatherDisplay:10.37,2013-09-12 09:51:00,
2013-09-12 04:53:00,59.4,56.7,28.76,WNW,292,6.9,6.9,91,0.00,CLR,,0.00,WeatherDisplay:10.37,2013-09-12 09:53:00,
2013-09-12 04:55:00,59.4,56.1,28.79,North,0,3.5,3.5,89,0.00,CLR,,0.00,WeatherDisplay:10.37,2013-09-12 09:55:00,
2013-09-12 04:57:00,59.4,55.8,28.79,North,0,3.6,3.6,88,0.00,CLR,,0.00,WeatherDisplay:10.37,2013-09-12 09:57:00,
2013-09-12 04:58:00,59.4,55.8,28.79,NNE,22,3.5,3.5,88,0.00,CLR,,0.00,WeatherDisplay:10.37,2013-09-12 09:58:00,
2013-09-12 04:59:00,59.4,55.8,28.79,NNW,338,3.5,3.5,88,0.00,CLR,,0.00,WeatherDisplay:10.37,2013-09-12 09:59:00,
2013-09-12 05:00:00,59.4,55.5,28.79,NW,315,3.5,3.5,87,0.00,CLR,,0.00,WeatherDisplay:10.37,2013-09-12 10:00:00,
2013-09-12 05:02:00,59.2,55.0,28.79,NW,315,3.5,3.5,86,0.00,CLR,,0.00,WeatherDisplay:10.37,2013-09-12 10:02:00,
2013-09-12 05:03:00,59.2,55.0,28.79,NW,315,3.5,3.5,86,0.00,CLR,,0.00,WeatherDisplay:10.37,2013-09-12 10:03:00,
2013-09-12 05:04:00,59.2,55.0,28.79,North,0,3.5,3.5,86,0.00,CLR,,0.00,WeatherDisplay:10.37,2013-09-12 10:04:00,
2013-09-12 05:05:00,59.0,54.8,28.79,NNE,22,2.3,2.3,86,0.00,CLR,,0.00,WeatherDisplay:10.37,2013-09-12 10:05:00,
2013-09-12 05:07:00,58.8,54.6,28.79,NW,315,2.4,2.4,86,0.00,CLR,,0.00,WeatherDisplay:10.37,2013-09-12 10:07:00,
2013-09-12 05:08:00,58.8,54.6,28.79,NNW,338,3.5,3.5,86,0.00,CLR,,0.00,WeatherDisplay:10.37,2013-09-12 10:08:00,
2013-09-12 05:09:00,58.6,54.5,28.79,NNE,22,3.5,3.5,86,0.00,CLR,,0.00,WeatherDisplay:10.37,2013-09-12 10:09:00,
2013-09-12 05:10:00,58.6,54.5,28.79,West,270,3.5,3.5,86,0.00,CLR,,0.00,WeatherDisplay:10.37,2013-09-12 10:10:00,
2013-09-12 05:11:00,58.6,54.5,28.79,NW,315,2.6,2.6,86,0.00,CLR,,0.00,WeatherDisplay:10.37,2013-09-12 10:11:00,
2013-09-12 05:12:00,58.6,54.5,28.79,NW,315,3.3,3.3,86,0.00,CLR,,0.00,WeatherDisplay:10.37,2013-09-12 10:12:00,
2013-09-12 05:13:00,58.6,54.5,28.79,NW,315,3.5,3.5,86,0.00,CLR,,0.00,WeatherDisplay:10.37,2013-09-12 10:13:00,
2013-09-12 05:14:00,58.6,54.5,28.79,NW,315,3.5,3.5,86,0.00,CLR,,0.00,WeatherDisplay:10.37,2013-09-12 10:14:00,
2013-09-12 05:15:00,58.5,54.3,28.79,WNW,292,2.3,2.3,86,0.00,CLR,,0.00,WeatherDisplay:10.37,2013-09-12 10:15:00,
2013-09-12 05:16:00,58.5,54.3,28.79,NW,315,2.3,2.3,86,0.00,CLR,,0.00,WeatherDisplay:10.37,2013-09-12 10:16:00,
2013-09-12 05:18:00,58.5,54.3,28.79,NW,315,2.3,2.3,86,0.00,CLR,,0.00,WeatherDisplay:10.37,2013-09-12 10:18:00,
2013-09-12 05:19:00,58.5,54.0,28.79,NNW,338,3.6,3.6,85,0.00,CLR,,0.00,WeatherDisplay:10.37,2013-09-12 10:19:00,
2013-09-12 05:21:00,58.5,54.0,28.79,NW,315,3.5,3.5,85,0.00,CLR,,0.00,WeatherDisplay:10.37,2013-09-12 10:21:00,
2013-09-12 05:22:00,58.5,54.0,28.79,NNE,22,3.5,3.5,85,0.00,CLR,,0.00,WeatherDisplay:10.37,2013-09-12 10:22:00,
2013-09-12 05:24:00,58.5,54.0,28.79,NW,315,3.5,3.5,85,0.00,CLR,,0.00,WeatherDisplay:10.37,2013-09-12 10:24:00,
2013-09-12 05:25:00,58.6,54.1,28.79,WNW,292,4.6,4.6,85,0.00,CLR,,0.00,WeatherDisplay:10.37,2013-09-12 10:25:00,
2013-09-12 05:26:00,58.6,54.1,28.79,West,270,5.8,5.8,85,0.00,CLR,,0.00,WeatherDisplay:10.37,2013-09-12 10:26:00,
2013-09-12 05:28:00,58.8,54.3,28.79,NW,315,3.5,3.5,85,0.00,CLR,,0.00,WeatherDisplay:10.37,2013-09-12 10:28:00,
2013-09-12 05:29:00,58.8,54.3,28.79,NNW,338,3.5,3.5,85,0.00,CLR,,0.00,WeatherDisplay:10.37,2013-09-12 10:29:00,
2013-09-12 05:31:00,58.8,54.0,28.79,North,0,3.5,3.5,84,0.00,CLR,,0.00,WeatherDisplay:10.37,2013-09-12 10:31:00,
2013-09-12 05:34:00,59.0,53.8,28.79,NNW,338,3.5,3.5,83,0.00,CLR,,0.00,WeatherDisplay:10.37,2013-09-12 10:34:00,
2013-09-12 05:35:00,59.0,53.8,28.79,North,0,3.5,3.5,83,0.00,CLR,,0.00,WeatherDisplay:10.37,2013-09-12 10:35:00,
2013-09-12 05:36:00,59.0,53.8,28.79,NNW,338,3.5,3.5,83,0.00,CLR,,0.00,WeatherDisplay:10.37,2013-09-12 10:36:00,
2013-09-12 05:37:00,59.2,54.0,28.79,NW,315,4.6,4.6,83,0.00,CLR,,0.00,WeatherDisplay:10.37,2013-09-12 10:37:00,
2013-09-12 05:39:00,59.2,54.0,28.79,NW,315,2.6,2.6,83,0.00,CLR,,0.00,WeatherDisplay:10.37,2013-09-12 10:39:00,
2013-09-12 05:40:00,59.2,54.0,28.82,North,0,4.6,4.6,83,0.00,CLR,,0.00,WeatherDisplay:10.37,2013-09-12 10:40:00,
2013-09-12 05:41:00,59.0,53.8,28.82,WNW,292,2.3,0.0,83,0.00,CLR,,0.00,WeatherDisplay:10.37,2013-09-12 10:41:00,
2013-09-12 05:43:00,59.0,53.8,28.82,NW,315,5.9,5.9,83,0.00,CLR,,0.00,WeatherDisplay:10.37,2013-09-12 10:43:00,
2013-09-12 05:44:00,59.0,53.5,28.82,NW,315,5.8,5.8,82,0.00,CLR,,0.00,WeatherDisplay:10.37,2013-09-12 10:44:00,
2013-09-12 05:45:00,59.0,53.5,28.82,NNE,22,2.3,2.6,82,0.00,CLR,,0.00,WeatherDisplay:10.37,2013-09-12 10:45:00,
2013-09-12 05:46:00,58.8,53.7,28.82,NNE,22,2.3,2.3,83,0.00,CLR,,0.00,WeatherDisplay:10.37,2013-09-12 10:46:00,
2013-09-12 05:48:00,58.6,53.5,28.82,NNE,22,2.3,2.3,83,0.00,CLR,,0.00,WeatherDisplay:10.37,2013-09-12 10:48:00,
2013-09-12 05:49:00,58.5,53.0,28.82,WNW,292,2.3,2.3,82,0.00,CLR,,0.00,WeatherDisplay:10.37,2013-09-12 10:49:00,
2013-09-12 05:50:00,58.5,53.0,28.82,NNE,22,3.5,3.5,82,0.00,CLR,,0.00,WeatherDisplay:10.37,2013-09-12 10:50:00,
2013-09-12 05:51:00,58.5,53.0,28.82,NNW,338,3.5,3.5,82,0.00,CLR,,0.00,WeatherDisplay:10.37,2013-09-12 10:51:00,
2013-09-12 05:54:00,58.6,53.5,28.82,NW,315,5.8,5.8,83,0.00,CLR,,0.00,WeatherDisplay:10.37,2013-09-12 10:54:00,
2013-09-12 05:55:00,58.8,53.7,28.82,NW,315,4.6,4.6,83,0.00,CLR,,0.00,WeatherDisplay:10.37,2013-09-12 10:55:00,
2013-09-12 05:56:00,58.8,53.7,28.82,NNW,338,4.6,4.6,83,0.00,CLR,,0.00,WeatherDisplay:10.37,2013-09-12 10:56:00,
2013-09-12 05:59:00,59.0,53.5,28.82,WNW,292,6.4,6.4,82,0.00,CLR,,0.00,WeatherDisplay:10.37,2013-09-12 10:59:00,
2013-09-12 06:00:00,59.2,53.4,28.82,NW,315,6.9,6.9,81,0.00,CLR,,0.00,WeatherDisplay:10.37,2013-09-12 11:00:00,
2013-09-12 06:02:00,59.2,53.4,28.82,North,0,5.8,5.8,81,0.00,CLR,,0.00,WeatherDisplay:10.37,2013-09-12 11:02:00,
2013-09-12 06:04:00,59.2,53.0,28.82,NNW,338,8.1,8.1,80,0.00,CLR,,0.00,WeatherDisplay:10.37,2013-09-12 11:04:00,
2013-09-12 06:05:00,59.4,53.2,28.82,WNW,292,11.5,11.5,80,0.00,CLR,,0.00,WeatherDisplay:10.37,2013-09-12 11:05:00,
2013-09-12 06:06:00,59.4,52.8,28.82,NW,315,8.1,8.1,79,0.00,CLR,,0.00,WeatherDisplay:10.37,2013-09-12 11:06:00,
2013-09-12 06:07:00,59.4,52.8,28.82,West,270,4.6,4.9,79,0.00,CLR,,0.00,WeatherDisplay:10.37,2013-09-12 11:07:00,
2013-09-12 06:09:00,59.4,52.8,28.82,NW,315,6.2,6.2,79,0.00,CLR,,0.00,WeatherDisplay:10.37,2013-09-12 11:09:00,
2013-09-12 06:10:00,59.2,52.7,28.82,NNE,22,5.8,5.8,79,0.00,CLR,,0.00,WeatherDisplay:10.37,2013-09-12 11:10:00,
2013-09-12 06:11:00,59.2,52.7,28.82,NW,315,6.2,6.2,79,0.00,CLR,,0.00,WeatherDisplay:10.37,2013-09-12 11:11:00,
2013-09-12 06:12:00,59.2,52.7,28.82,NW,315,5.8,5.8,79,0.00,CLR,,0.00,WeatherDisplay:10.37,2013-09-12 11:12:00,
2013-09-12 06:14:00,59.2,52.7,28.82,NNW,338,9.2,9.2,79,0.00,CLR,,0.00,WeatherDisplay:10.37,2013-09-12 11:14:00,
2013-09-12 06:15:00,59.2,52.7,28.82,West,270,10.4,10.4,79,0.00,CLR,,0.00,WeatherDisplay:10.37,2013-09-12 11:15:00,
2013-09-12 06:16:00,59.2,52.7,28.82,NW,315,9.2,9.2,79,0.00,CLR,,0.00,WeatherDisplay:10.37,2013-09-12 11:16:00,
2013-09-12 06:17:00,59.2,52.7,28.82,WNW,292,9.2,9.2,79,0.00,CLR,,0.00,WeatherDisplay:10.37,2013-09-12 11:17:00,
2013-09-12 06:20:00,59.2,52.7,28.82,NW,315,8.1,8.1,79,0.00,CLR,,0.00,WeatherDisplay:10.37,2013-09-12 11:20:00,
2013-09-12 06:21:00,59.2,52.7,28.82,North,0,7.8,7.8,79,0.00,CLR,,0.00,WeatherDisplay:10.37,2013-09-12 11:21:00,
2013-09-12 06:22:00,59.2,52.7,28.82,NW,315,8.1,8.1,79,0.00,CLR,,0.00,WeatherDisplay:10.37,2013-09-12 11:22:00,
2013-09-12 06:23:00,59.2,52.7,28.82,NNW,338,8.1,8.1,79,0.00,CLR,,0.00,WeatherDisplay:10.37,2013-09-12 11:23:00,
2013-09-12 06:25:00,59.0,52.5,28.85,NW,315,8.1,8.1,79,0.00,CLR,,0.00,WeatherDisplay:10.37,2013-09-12 11:25:00,
2013-09-12 06:26:00,59.0,52.5,28.85,North,0,6.9,6.9,79,0.00,CLR,,0.00,WeatherDisplay:10.37,2013-09-12 11:26:00,
2013-09-12 06:28:00,59.0,52.8,28.85,West,270,8.1,8.1,80,0.00,CLR,,0.00,WeatherDisplay:10.37,2013-09-12 11:28:00,
2013-09-12 06:30:00,59.0,52.8,28.85,North,0,6.9,6.9,80,0.00,CLR,,0.00,WeatherDisplay:10.37,2013-09-12 11:30:00,
2013-09-12 06:31:00,59.0,52.8,28.85,WNW,292,5.8,5.8,80,0.00,CLR,,0.00,WeatherDisplay:10.37,2013-09-12 11:31:00,
2013-09-12 06:32:00,59.0,52.8,28.85,NW,315,5.9,5.9,80,0.00,CLR,,0.00,WeatherDisplay:10.37,2013-09-12 11:32:00,
2013-09-12 06:33:00,58.8,53.0,28.85,WSW,248,9.2,9.2,81,0.00,CLR,,0.00,WeatherDisplay:10.37,2013-09-12 11:33:00,
2013-09-12 06:35:00,58.8,53.0,28.85,NW,315,5.8,5.8,81,0.00,CLR,,0.00,WeatherDisplay:10.37,2013-09-12 11:35:00,
2013-09-12 06:36:00,58.8,53.0,28.85,West,270,6.9,6.9,81,0.00,CLR,,0.00,WeatherDisplay:10.37,2013-09-12 11:36:00,
2013-09-12 06:37:00,58.8,53.0,28.85,WNW,292,6.9,6.9,81,0.00,CLR,,0.00,WeatherDisplay:10.37,2013-09-12 11:37:00,
2013-09-12 06:38:00,58.8,53.0,28.85,NW,315,5.8,5.8,81,0.00,CLR,,0.00,WeatherDisplay:10.37,2013-09-12 11:38:00,
2013-09-12 06:40:00,58.6,53.2,28.85,NNW,338,9.2,9.2,82,0.00,CLR,,0.00,WeatherDisplay:10.37,2013-09-12 11:40:00,
2013-09-12 06:41:00,58.6,53.2,28.85,NNW,338,6.0,6.0,82,0.00,CLR,,0.00,WeatherDisplay:10.37,2013-09-12 11:41:00,
2013-09-12 06:42:00,58.6,53.2,28.85,North,0,5.8,5.8,82,0.00,CLR,,0.00,WeatherDisplay:10.37,2013-09-12 11:42:00,
2013-09-12 06:43:00,58.6,53.2,28.85,NNW,338,5.8,5.8,82,0.00,CLR,,0.00,WeatherDisplay:10.37,2013-09-12 11:43:00,
2013-09-12 06:45:00,58.5,53.0,28.85,North,0,5.8,5.8,82,0.00,CLR,,0.00,WeatherDisplay:10.37,2013-09-12 11:45:00,
2013-09-12 06:46:00,58.5,53.0,28.85,NW,315,5.8,5.8,82,0.00,CLR,,0.00,WeatherDisplay:10.37,2013-09-12 11:46:00,
2013-09-12 06:47:00,58.5,53.3,28.85,NNW,338,5.8,6.0,83,0.00,CLR,,0.00,WeatherDisplay:10.37,2013-09-12 11:47:00,
2013-09-12 06:48:00,58.5,53.3,28.85,WNW,292,7.4,7.4,83,0.00,CLR,,0.00,WeatherDisplay:10.37,2013-09-12 11:48:00,
2013-09-12 06:49:00,58.5,53.3,28.85,NNW,338,6.9,6.9,83,0.00,CLR,,0.00,WeatherDisplay:10.37,2013-09-12 11:49:00,
2013-09-12 06:51:00,58.5,53.3,28.85,NW,315,6.9,6.9,83,0.00,CLR,,0.00,WeatherDisplay:10.37,2013-09-12 11:51:00,
2013-09-12 06:53:00,58.5,53.3,28.85,NW,315,6.9,6.9,83,0.00,CLR,,0.00,WeatherDisplay:10.37,2013-09-12 11:53:00,
2013-09-12 06:54:00,58.8,53.7,28.85,NW,315,4.9,4.9,83,0.00,CLR,,0.00,WeatherDisplay:10.37,2013-09-12 11:54:00,
2013-09-12 06:56:00,58.8,53.7,28.82,NW,315,8.1,8.1,83,0.00,CLR,,0.00,WeatherDisplay:10.37,2013-09-12 11:56:00,
2013-09-12 06:57:00,58.8,53.7,28.82,NW,315,5.8,5.8,83,0.00,CLR,,0.00,WeatherDisplay:10.37,2013-09-12 11:57:00,
2013-09-12 06:58:00,59.0,53.8,28.82,North,0,6.0,6.0,83,0.00,CLR,,0.00,WeatherDisplay:10.37,2013-09-12 11:58:00,
2013-09-12 06:59:00,59.0,53.8,28.82,West,270,7.4,7.4,83,0.00,CLR,,0.00,WeatherDisplay:10.37,2013-09-12 11:59:00,
2013-09-12 07:01:00,59.2,54.0,28.82,North,0,6.9,6.9,83,0.00,CLR,,0.00,WeatherDisplay:10.37,2013-09-12 12:01:00,
2013-09-12 07:02:00,59.4,53.9,28.82,North,0,8.1,8.1,82,0.00,CLR,,0.00,WeatherDisplay:10.37,2013-09-12 12:02:00,
2013-09-12 07:03:00,59.4,53.9,28.82,North,0,8.1,8.1,82,0.00,CLR,,0.00,WeatherDisplay:10.37,2013-09-12 12:03:00,
2013-09-12 07:04:00,59.4,53.9,28.82,NW,315,5.8,5.8,82,0.00,CLR,,0.00,WeatherDisplay:10.37,2013-09-12 12:04:00,
2013-09-12 07:06:00,59.5,54.0,28.82,North,0,6.9,6.9,82,0.00,CLR,,0.00,WeatherDisplay:10.37,2013-09-12 12:06:00,
2013-09-12 07:07:00,59.5,54.0,28.82,North,0,11.5,11.5,82,0.00,CLR,,0.00,WeatherDisplay:10.37,2013-09-12 12:07:00,
2013-09-12 07:08:00,59.7,54.2,28.82,NW,315,11.5,11.5,82,0.00,CLR,,0.00,WeatherDisplay:10.37,2013-09-12 12:08:00,
2013-09-12 07:09:00,59.7,54.2,28.82,NNW,338,6.2,6.2,82,0.00,CLR,,0.00,WeatherDisplay:10.37,2013-09-12 12:09:00,
2013-09-12 07:11:00,59.7,54.2,28.82,NNW,338,5.8,5.8,82,0.00,CLR,,0.00,WeatherDisplay:10.37,2013-09-12 12:11:00,
2013-09-12 07:13:00,59.9,54.1,28.82,North,0,8.1,8.1,81,0.00,CLR,,0.00,WeatherDisplay:10.37,2013-09-12 12:13:00,
2013-09-12 07:14:00,60.1,54.2,28.82,NW,315,8.1,8.1,81,0.00,CLR,,0.00,WeatherDisplay:10.37,2013-09-12 12:14:00,
2013-09-12 07:16:00,60.1,54.2,28.82,NW,315,9.2,9.2,81,0.00,CLR,,0.00,WeatherDisplay:10.37,2013-09-12 12:16:00,
2013-09-12 07:18:00,60.3,54.1,28.82,WNW,292,9.2,9.2,80,0.00,CLR,,0.00,WeatherDisplay:10.37,2013-09-12 12:18:00,
2013-09-12 07:19:00,60.3,54.1,28.82,WNW,292,8.1,8.1,80,0.00,CLR,,0.00,WeatherDisplay:10.37,2013-09-12 12:19:00,
2013-09-12 07:20:00,60.3,54.1,28.82,NW,315,8.1,8.1,80,0.00,CLR,,0.00,WeatherDisplay:10.37,2013-09-12 12:20:00,
2013-09-12 07:21:00,60.4,53.9,28.82,WNW,292,6.9,6.9,79,0.00,CLR,,0.00,WeatherDisplay:10.37,2013-09-12 12:21:00,
2013-09-12 07:22:00,60.6,54.4,28.82,North,0,5.6,5.6,80,0.00,CLR,,0.00,WeatherDisplay:10.37,2013-09-12 12:22:00,
2013-09-12 07:23:00,60.6,54.1,28.82,North,0,6.2,6.2,79,0.00,CLR,,0.00,WeatherDisplay:10.37,2013-09-12 12:23:00,
2013-09-12 07:24:00,60.6,54.1,28.82,North,0,6.9,6.9,79,0.00,CLR,,0.00,WeatherDisplay:10.37,2013-09-12 12:24:00,
2013-09-12 07:25:00,60.6,54.1,28.85,NW,315,6.0,6.0,79,0.00,CLR,,0.00,WeatherDisplay:10.37,2013-09-12 12:25:00,
2013-09-12 07:26:00,61.0,54.1,28.85,NNE,22,5.8,5.8,78,0.00,CLR,,0.00,WeatherDisplay:10.37,2013-09-12 12:26:00,
2013-09-12 07:27:00,61.0,54.1,28.85,NW,315,4.6,4.6,78,0.00,CLR,,0.00,WeatherDisplay:10.37,2013-09-12 12:27:00,
2013-09-12 07:28:00,61.0,53.4,28.85,North,0,10.4,10.4,76,0.00,CLR,,0.00,WeatherDisplay:10.37,2013-09-12 12:28:00,
2013-09-12 07:29:00,61.0,53.4,28.85,NNW,338,10.4,10.4,76,0.00,CLR,,0.00,WeatherDisplay:10.37,2013-09-12 12:29:00,
2013-09-12 07:30:00,61.0,53.7,28.85,NNW,338,9.2,9.2,77,0.00,CLR,,0.00,WeatherDisplay:10.37,2013-09-12 12:30:00,
2013-09-12 07:31:00,61.3,54.1,28.85,NNW,338,5.8,5.8,77,0.00,CLR,,0.00,WeatherDisplay:10.37,2013-09-12 12:31:00,
2013-09-12 07:32:00,61.3,54.1,28.85,WNW,292,7.8,7.8,77,0.00,CLR,,0.00,WeatherDisplay:10.37,2013-09-12 12:32:00,
2013-09-12 07:34:00,61.3,53.7,28.85,North,0,12.7,12.7,76,0.00,CLR,,0.00,WeatherDisplay:10.37,2013-09-12 12:34:00,
2013-09-12 07:35:00,61.3,53.3,28.85,North,0,8.1,8.1,75,0.00,CLR,,0.00,WeatherDisplay:10.37,2013-09-12 12:35:00,
2013-09-12 07:36:00,61.5,53.5,28.85,NNW,338,6.2,6.2,75,0.00,CLR,,0.00,WeatherDisplay:10.37,2013-09-12 12:36:00,
2013-09-12 07:37:00,61.5,53.5,28.85,North,0,6.9,6.9,75,0.00,CLR,,0.00,WeatherDisplay:10.37,2013-09-12 12:37:00,
2013-09-12 07:38:00,61.5,53.5,28.85,NW,315,6.9,6.9,75,0.00,CLR,,0.00,WeatherDisplay:10.37,2013-09-12 12:38:00,
2013-09-12 07:39:00,61.7,53.3,28.85,North,0,8.1,8.1,74,0.00,CLR,,0.00,WeatherDisplay:10.37,2013-09-12 12:39:00,
2013-09-12 07:40:00,61.7,53.3,28.85,NNW,338,8.1,8.1,74,0.00,CLR,,0.00,WeatherDisplay:10.37,2013-09-12 12:40:00,
2013-09-12 07:41:00,61.9,53.5,28.85,North,0,7.8,7.8,74,0.00,CLR,,0.00,WeatherDisplay:10.37,2013-09-12 12:41:00,
2013-09-12 07:42:00,61.9,53.1,28.85,NNE,22,8.1,8.1,73,0.00,CLR,,0.00,WeatherDisplay:10.37,2013-09-12 12:42:00,
2013-09-12 07:43:00,61.9,53.1,28.85,NW,315,8.5,8.5,73,0.00,CLR,,0.00,WeatherDisplay:10.37,2013-09-12 12:43:00,
2013-09-12 07:44:00,62.1,53.3,28.85,WNW,292,9.2,9.2,73,0.00,CLR,,0.00,WeatherDisplay:10.37,2013-09-12 12:44:00,
2013-09-12 07:45:00,62.1,53.3,28.85,WNW,292,8.1,8.1,73,0.00,CLR,,0.00,WeatherDisplay:10.37,2013-09-12 12:45:00,
2013-09-12 07:46:00,62.2,53.5,28.85,NNW,338,8.1,8.1,73,0.00,CLR,,0.00,WeatherDisplay:10.37,2013-09-12 12:46:00,
2013-09-12 07:47:00,62.2,53.5,28.85,NNW,338,8.5,8.5,73,0.00,CLR,,0.00,WeatherDisplay:10.37,2013-09-12 12:47:00,
2013-09-12 07:50:00,62.4,53.6,28.85,NW,315,8.5,8.5,73,0.00,CLR,,0.00,WeatherDisplay:10.37,2013-09-12 12:50:00,
2013-09-12 07:51:00,62.2,53.1,28.85,North,0,9.2,9.2,72,0.00,CLR,,0.00,WeatherDisplay:10.37,2013-09-12 12:51:00,
2013-09-12 07:53:00,62.6,53.4,28.85,North,0,5.8,5.8,72,0.00,CLR,,0.00,WeatherDisplay:10.37,2013-09-12 12:53:00,
2013-09-12 07:55:00,62.6,53.1,28.85,NW,315,8.1,8.1,71,0.00,CLR,,0.00,WeatherDisplay:10.37,2013-09-12 12:55:00,
2013-09-12 07:56:00,62.8,53.2,28.85,NW,315,8.1,8.1,71,0.00,CLR,,0.00,WeatherDisplay:10.37,2013-09-12 12:56:00,
2013-09-12 07:59:00,63.1,53.6,28.85,NW,315,9.2,9.2,71,0.00,CLR,,0.00,WeatherDisplay:10.37,2013-09-12 12:59:00,
2013-09-12 08:00:00,63.3,53.8,28.85,NW,315,6.2,6.2,71,0.00,CLR,,0.00,WeatherDisplay:10.37,2013-09-12 13:00:00,
2013-09-12 08:01:00,63.3,53.8,28.85,NNW,338,8.1,8.1,71,0.00,CLR,,0.00,WeatherDisplay:10.37,2013-09-12 13:01:00,
2013-09-12 08:04:00,63.5,53.5,28.85,North,0,7.1,7.1,70,0.00,CLR,,0.00,WeatherDisplay:10.37,2013-09-12 13:04:00,
2013-09-12 08:06:00,63.7,53.7,28.85,NNW,338,5.8,5.8,70,0.00,CLR,,0.00,WeatherDisplay:10.37,2013-09-12 13:06:00,
2013-09-12 08:07:00,63.7,53.7,28.85,NW,315,6.9,6.9,70,0.00,CLR,,0.00,WeatherDisplay:10.37,2013-09-12 13:07:00,
2013-09-12 08:09:00,63.5,52.7,28.85,North,0,7.6,7.6,68,0.00,CLR,,0.00,WeatherDisplay:10.37,2013-09-12 13:09:00,
2013-09-12 08:11:00,63.7,53.3,28.85,NNW,338,8.1,8.1,69,0.00,CLR,,0.00,WeatherDisplay:10.37,2013-09-12 13:11:00,
2013-09-12 08:12:00,63.9,53.5,28.85,NW,315,5.8,5.8,69,0.00,CLR,,0.00,WeatherDisplay:10.37,2013-09-12 13:12:00,
2013-09-12 08:14:00,64.0,53.7,28.85,NW,315,8.1,8.1,69,0.00,CLR,,0.00,WeatherDisplay:10.37,2013-09-12 13:14:00,
2013-09-12 08:16:00,63.5,52.3,28.85,North,0,10.4,10.4,67,0.00,CLR,,0.00,WeatherDisplay:10.37,2013-09-12 13:16:00,
2013-09-12 08:17:00,63.5,52.3,28.85,North,0,11.5,11.5,67,0.00,CLR,,0.00,WeatherDisplay:10.37,2013-09-12 13:17:00,
2013-09-12 08:18:00,64.0,53.3,28.85,NW,315,6.9,6.9,68,0.00,CLR,,0.00,WeatherDisplay:10.37,2013-09-12 13:18:00,
2013-09-12 08:19:00,64.0,53.3,28.85,NW,315,8.1,8.1,68,0.00,CLR,,0.00,WeatherDisplay:10.37,2013-09-12 13:19:00,
2013-09-12 08:21:00,64.2,53.4,28.85,North,0,6.0,6.0,68,0.00,CLR,,0.00,WeatherDisplay:10.37,2013-09-12 13:21:00,
2013-09-12 08:22:00,64.2,53.4,28.85,NNE,22,7.6,7.6,68,0.00,CLR,,0.00,WeatherDisplay:10.37,2013-09-12 13:22:00,
2013-09-12 08:23:00,64.0,52.9,28.85,North,0,9.2,9.2,67,0.00,CLR,,0.00,WeatherDisplay:10.37,2013-09-12 13:23:00,
2013-09-12 08:25:00,64.4,53.6,28.88,NW,315,8.1,8.1,68,0.00,CLR,,0.00,WeatherDisplay:10.37,2013-09-12 13:25:00,
2013-09-12 08:26:00,64.4,53.2,28.88,NW,315,8.7,8.7,67,0.00,CLR,,0.00,WeatherDisplay:10.37,2013-09-12 13:26:00,
2013-09-12 08:27:00,64.4,52.8,28.88,NNW,338,9.2,9.2,66,0.00,CLR,,0.00,WeatherDisplay:10.37,2013-09-12 13:27:00,
2013-09-12 08:28:00,64.0,52.4,28.88,NW,315,8.1,8.1,66,0.00,CLR,,0.00,WeatherDisplay:10.37,2013-09-12 13:28:00,
2013-09-12 08:31:00,64.0,52.4,28.88,North,0,8.1,8.1,66,0.00,CLR,,0.00,WeatherDisplay:10.37,2013-09-12 13:31:00,
2013-09-12 08:32:00,64.0,52.4,28.88,NW,315,8.1,8.1,66,0.00,CLR,,0.00,WeatherDisplay:10.37,2013-09-12 13:32:00,
2013-09-12 08:33:00,64.2,52.6,28.88,North,0,9.2,9.2,66,0.00,CLR,,0.00,WeatherDisplay:10.37,2013-09-12 13:33:00,
2013-09-12 08:34:00,64.4,52.8,28.88,WNW,292,9.2,9.2,66,0.00,CLR,,0.00,WeatherDisplay:10.37,2013-09-12 13:34:00,
2013-09-12 08:36:00,65.1,53.5,28.88,NW,315,5.8,5.8,66,0.00,CLR,,0.00,WeatherDisplay:10.37,2013-09-12 13:36:00,
2013-09-12 08:37:00,65.1,53.5,28.88,North,0,5.8,5.8,66,0.00,CLR,,0.00,WeatherDisplay:10.37,2013-09-12 13:37:00,
2013-09-12 08:38:00,65.7,54.0,28.88,NW,315,5.8,5.8,66,0.00,CLR,,0.00,WeatherDisplay:10.37,2013-09-12 13:38:00,
2013-09-12 08:39:00,65.7,54.0,28.88,NNW,338,3.8,3.8,66,0.00,CLR,,0.00,WeatherDisplay:10.37,2013-09-12 13:39:00,
2013-09-12 08:41:00,65.3,52.4,28.88,North,0,8.1,8.1,63,0.00,CLR,,0.00,WeatherDisplay:10.37,2013-09-12 13:41:00,
2013-09-12 08:42:00,65.3,52.4,28.88,NNW,338,8.1,8.1,63,0.00,CLR,,0.00,WeatherDisplay:10.37,2013-09-12 13:42:00,
2013-09-12 08:43:00,65.1,52.6,28.88,NNE,22,9.2,9.2,64,0.00,CLR,,0.00,WeatherDisplay:10.37,2013-09-12 13:43:00,
2013-09-12 08:44:00,65.3,52.4,28.88,NW,315,8.1,8.1,63,0.00,CLR,,0.00,WeatherDisplay:10.37,2013-09-12 13:44:00,
2013-09-12 08:47:00,64.9,52.0,28.88,North,0,9.2,9.2,63,0.00,CLR,,0.00,WeatherDisplay:10.37,2013-09-12 13:47:00,
2013-09-12 08:48:00,65.3,52.4,28.88,North,0,9.2,9.2,63,0.00,CLR,,0.00,WeatherDisplay:10.37,2013-09-12 13:48:00,
2013-09-12 08:49:00,65.3,52.4,28.88,North,0,8.1,8.1,63,0.00,CLR,,0.00,WeatherDisplay:10.37,2013-09-12 13:49:00,
2013-09-12 08:50:00,65.5,52.5,28.88,NW,315,8.1,8.1,63,0.00,CLR,,0.00,WeatherDisplay:10.37,2013-09-12 13:50:00,
2013-09-12 08:52:00,65.7,52.7,28.88,WNW,292,6.9,6.9,63,0.00,CLR,,0.00,WeatherDisplay:10.37,2013-09-12 13:52:00,
2013-09-12 08:53:00,66.2,52.8,28.88,NNW,338,6.9,6.9,62,0.00,CLR,,0.00,WeatherDisplay:10.37,2013-09-12 13:53:00,
2013-09-12 08:54:00,66.2,52.8,28.88,NW,315,5.8,5.8,62,0.00,CLR,,0.00,WeatherDisplay:10.37,2013-09-12 13:54:00,
2013-09-12 08:55:00,66.6,53.1,28.88,WNW,292,5.8,5.8,62,0.00,CLR,,0.00,WeatherDisplay:10.37,2013-09-12 13:55:00,
2013-09-12 08:56:00,66.9,53.0,28.88,NNW,338,5.4,5.4,61,0.00,CLR,,0.00,WeatherDisplay:10.37,2013-09-12 13:56:00,
2013-09-12 08:57:00,66.9,52.6,28.88,NNE,22,9.2,9.2,60,0.00,CLR,,0.00,WeatherDisplay:10.37,2013-09-12 13:57:00,
2013-09-12 08:59:00,67.1,52.7,28.88,NW,315,6.0,6.0,60,0.00,CLR,,0.00,WeatherDisplay:10.37,2013-09-12 13:59:00,
2013-09-12 09:00:00,67.1,52.3,28.88,North,0,5.9,5.9,59,0.00,CLR,,0.00,WeatherDisplay:10.37,2013-09-12 14:00:00,
2013-09-12 09:01:00,67.3,52.9,28.88,NNW,338,5.8,5.8,60,0.00,CLR,,0.00,WeatherDisplay:10.37,2013-09-12 14:01:00,
2013-09-12 09:02:00,67.5,53.1,28.88,NNW,338,6.4,6.4,60,0.00,CLR,,0.00,WeatherDisplay:10.37,2013-09-12 14:02:00,
2013-09-12 09:04:00,67.6,53.3,28.88,NNW,338,5.8,5.8,60,0.00,CLR,,0.00,WeatherDisplay:10.37,2013-09-12 14:04:00,
2013-09-12 09:05:00,67.8,53.0,28.88,North,0,5.9,5.9,59,0.00,CLR,,0.00,WeatherDisplay:10.37,2013-09-12 14:05:00,
2013-09-12 09:06:00,68.0,52.7,28.88,West,270,6.9,6.9,58,0.00,CLR,,0.00,WeatherDisplay:10.37,2013-09-12 14:06:00,
2013-09-12 09:07:00,68.0,52.7,28.88,North,0,6.9,6.9,58,0.00,CLR,,0.00,WeatherDisplay:10.37,2013-09-12 14:07:00,
2013-09-12 09:09:00,68.0,52.2,28.88,NNW,338,7.6,7.6,57,0.00,CLR,,0.00,WeatherDisplay:10.37,2013-09-12 14:09:00,
2013-09-12 09:11:00,68.0,51.7,28.88,North,0,6.9,6.9,56,0.00,CLR,,0.00,WeatherDisplay:10.37,2013-09-12 14:11:00,
2013-09-12 09:12:00,68.0,51.7,28.88,North,0,4.6,4.6,56,0.00,CLR,,0.00,WeatherDisplay:10.37,2013-09-12 14:12:00,
2013-09-12 09:14:00,68.7,52.4,28.88,NNE,22,5.8,5.8,56,0.00,CLR,,0.00,WeatherDisplay:10.37,2013-09-12 14:14:00,
2013-09-12 09:16:00,69.1,52.2,28.88,North,0,6.4,6.4,55,0.00,CLR,,0.00,WeatherDisplay:10.37,2013-09-12 14:16:00,
2013-09-12 09:17:00,69.1,52.2,28.88,NNW,338,8.1,8.1,55,0.00,CLR,,0.00,WeatherDisplay:10.37,2013-09-12 14:17:00,
2013-09-12 09:20:00,68.2,50.9,28.88,North,0,6.9,6.9,54,0.00,CLR,,0.00,WeatherDisplay:10.37,2013-09-12 14:20:00,
2013-09-12 09:21:00,68.4,51.6,28.88,NW,315,6.9,6.9,55,0.00,CLR,,0.00,WeatherDisplay:10.37,2013-09-12 14:21:00,
2013-09-12 09:22:00,68.2,50.9,28.88,West,270,8.5,8.5,54,0.00,CLR,,0.00,WeatherDisplay:10.37,2013-09-12 14:22:00,
2013-09-12 09:23:00,68.2,50.9,28.88,NNW,338,8.1,8.1,54,0.00,CLR,,0.00,WeatherDisplay:10.37,2013-09-12 14:23:00,
2013-09-12 09:25:00,67.6,49.9,28.88,NW,315,9.2,9.2,53,0.00,CLR,,0.00,WeatherDisplay:10.37,2013-09-12 14:25:00,
2013-09-12 09:27:00,67.6,50.4,28.88,NW,315,8.1,8.1,54,0.00,CLR,,0.00,WeatherDisplay:10.37,2013-09-12 14:27:00,
2013-09-12 09:28:00,67.6,50.4,28.88,North,0,7.4,7.4,54,0.00,CLR,,0.00,WeatherDisplay:10.37,2013-09-12 14:28:00,
2013-09-12 09:30:00,68.5,51.2,28.88,North,0,7.6,7.6,54,0.00,CLR,,0.00,WeatherDisplay:10.37,2013-09-12 14:30:00,
2013-09-12 09:32:00,68.7,51.4,28.88,NNW,338,8.1,8.1,54,0.00,CLR,,0.00,WeatherDisplay:10.37,2013-09-12 14:32:00,
2013-09-12 09:33:00,68.7,51.4,28.88,North,0,6.9,6.9,54,0.00,CLR,,0.00,WeatherDisplay:10.37,2013-09-12 14:33:00,
2013-09-12 09:34:00,68.9,51.6,28.88,NNE,22,7.1,7.1,54,0.00,CLR,,0.00,WeatherDisplay:10.37,2013-09-12 14:34:00,
2013-09-12 09:36:00,68.9,51.1,28.88,NW,315,8.1,8.1,53,0.00,CLR,,0.00,WeatherDisplay:10.37,2013-09-12 14:36:00,
2013-09-12 09:38:00,69.1,51.2,28.88,NW,315,5.9,5.9,53,0.00,CLR,,0.00,WeatherDisplay:10.37,2013-09-12 14:38:00,
2013-09-12 09:39:00,69.1,51.2,28.88,NW,315,6.9,6.9,53,0.00,CLR,,0.00,WeatherDisplay:10.37,2013-09-12 14:39:00,
2013-09-12 09:40:00,69.3,51.4,28.88,West,270,9.2,9.2,53,0.00,CLR,,0.00,WeatherDisplay:10.37,2013-09-12 14:40:00,
2013-09-12 09:41:00,69.3,51.4,28.88,NNW,338,9.2,9.2,53,0.00,CLR,,0.00,WeatherDisplay:10.37,2013-09-12 14:41:00,
2013-09-12 09:43:00,68.7,49.9,28.88,North,0,10.4,10.4,51,0.00,CLR,,0.00,WeatherDisplay:10.37,2013-09-12 14:43:00,
2013-09-12 09:44:00,68.7,50.4,28.88,WNW,292,10.4,10.4,52,0.00,CLR,,0.00,WeatherDisplay:10.37,2013-09-12 14:44:00,
2013-09-12 09:46:00,68.7,50.4,28.88,NW,315,8.1,8.1,52,0.00,CLR,,0.00,WeatherDisplay:10.37,2013-09-12 14:46:00,
2013-09-12 09:48:00,69.3,51.4,28.88,North,0,8.7,8.7,53,0.00,CLR,,0.00,WeatherDisplay:10.37,2013-09-12 14:48:00,
2013-09-12 09:49:00,69.6,51.2,28.88,NNW,338,9.2,9.2,52,0.00,CLR,,0.00,WeatherDisplay:10.37,2013-09-12 14:49:00,
2013-09-12 09:51:00,69.6,51.2,28.88,NNW,338,8.1,8.1,52,0.00,CLR,,0.00,WeatherDisplay:10.37,2013-09-12 14:51:00,
2013-09-12 09:53:00,69.8,50.9,28.88,NW,315,6.9,6.9,51,0.00,CLR,,0.00,WeatherDisplay:10.37,2013-09-12 14:53:00,
2013-09-12 09:54:00,69.3,49.8,28.91,NNW,338,11.5,11.5,50,0.00,CLR,,0.00,WeatherDisplay:10.37,2013-09-12 14:54:00,
2013-09-12 09:56:00,69.1,49.7,28.91,NW,315,9.2,9.2,50,0.00,CLR,,0.00,WeatherDisplay:10.37,2013-09-12 14:56:00,
2013-09-12 09:57:00,69.1,49.7,28.91,NNW,338,9.2,9.2,50,0.00,CLR,,0.00,WeatherDisplay:10.37,2013-09-12 14:57:00,
2013-09-12 09:58:00,69.4,50.0,28.91,NW,315,8.1,8.1,50,0.00,CLR,,0.00,WeatherDisplay:10.37,2013-09-12 14:58:00,
2013-09-12 10:00:00,70.0,50.5,28.91,NNW,338,5.8,5.8,50,0.00,CLR,,0.00,WeatherDisplay:10.37,2013-09-12 15:00:00,
2013-09-12 10:01:00,69.4,50.0,28.91,NW,315,10.4,10.4,50,0.00,CLR,,0.00,WeatherDisplay:10.37,2013-09-12 15:01:00,
2013-09-12 10:02:00,69.4,50.0,28.91,NNE,22,10.4,10.4,50,0.00,CLR,,0.00,WeatherDisplay:10.37,2013-09-12 15:02:00,
2013-09-12 10:03:00,68.7,49.3,28.91,North,0,12.7,12.7,50,0.00,CLR,,0.00,WeatherDisplay:10.37,2013-09-12 15:03:00,
2013-09-12 10:05:00,68.7,49.3,28.91,NW,315,11.5,11.5,50,0.00,CLR,,0.00,WeatherDisplay:10.37,2013-09-12 15:05:00,
2013-09-12 10:07:00,68.7,49.3,28.91,NNW,338,10.4,10.4,50,0.00,CLR,,0.00,WeatherDisplay:10.37,2013-09-12 15:07:00,
2013-09-12 10:08:00,68.5,49.2,28.91,NW,315,10.4,10.4,50,0.00,CLR,,0.00,WeatherDisplay:10.37,2013-09-12 15:08:00,
2013-09-12 10:10:00,68.4,49.0,28.91,NW,315,13.8,13.8,50,0.00,CLR,,0.00,WeatherDisplay:10.37,2013-09-12 15:10:00,
2013-09-12 10:12:00,68.7,49.9,28.91,West,270,10.4,10.4,51,0.00,CLR,,0.00,WeatherDisplay:10.37,2013-09-12 15:12:00,
2013-09-12 10:13:00,68.5,49.7,28.91,North,0,10.5,10.5,51,0.00,CLR,,0.00,WeatherDisplay:10.37,2013-09-12 15:13:00,
2013-09-12 10:14:00,68.7,50.4,28.91,NW,315,10.4,10.4,52,0.00,CLR,,0.00,WeatherDisplay:10.37,2013-09-12 15:14:00,
2013-09-12 10:15:00,69.1,50.7,28.91,NNW,338,10.7,10.7,52,0.00,CLR,,0.00,WeatherDisplay:10.37,2013-09-12 15:15:00,
2013-09-12 10:17:00,69.8,50.9,28.91,NW,315,6.9,6.9,51,0.00,CLR,,0.00,WeatherDisplay:10.37,2013-09-12 15:17:00,
2013-09-12 10:18:00,69.8,50.9,28.91,NNW,338,5.8,5.8,51,0.00,CLR,,0.00,WeatherDisplay:10.37,2013-09-12 15:18:00,
2013-09-12 10:19:00,70.2,51.2,28.91,NNE,22,10.4,10.4,51,0.00,CLR,,0.00,WeatherDisplay:10.37,2013-09-12 15:19:00,
2013-09-12 10:20:00,69.8,50.3,28.91,NW,315,9.2,9.2,50,0.00,CLR,,0.00,WeatherDisplay:10.37,2013-09-12 15:20:00,
2013-09-12 10:22:00,69.4,50.5,28.91,NNW,338,13.8,13.8,51,0.00,CLR,,0.00,WeatherDisplay:10.37,2013-09-12 15:22:00,
2013-09-12 10:23:00,69.8,50.9,28.91,NW,315,5.8,6.7,51,0.00,CLR,,0.00,WeatherDisplay:10.37,2013-09-12 15:23:00,
2013-09-12 10:24:00,69.8,50.9,28.91,NNW,338,9.8,9.8,51,0.00,CLR,,0.00,WeatherDisplay:10.37,2013-09-12 15:24:00,
2013-09-12 10:26:00,69.8,50.3,28.91,NW,315,10.4,10.4,50,0.00,CLR,,0.00,WeatherDisplay:10.37,2013-09-12 15:26:00,
2013-09-12 10:28:00,71.1,52.0,28.91,NE,45,3.5,3.5,51,0.00,CLR,,0.00,WeatherDisplay:10.37,2013-09-12 15:28:00,
2013-09-12 10:29:00,71.6,51.4,28.91,ENE,68,6.9,6.9,49,0.00,CLR,,0.00,WeatherDisplay:10.37,2013-09-12 15:29:00,
2013-09-12 10:31:00,72.3,52.1,28.91,North,0,4.6,4.6,49,0.00,CLR,,0.00,WeatherDisplay:10.37,2013-09-12 15:31:00,
2013-09-12 10:32:00,72.5,51.7,28.91,NW,315,5.8,5.8,48,0.00,CLR,,0.00,WeatherDisplay:10.37,2013-09-12 15:32:00,
2013-09-12 10:33:00,72.7,51.9,28.91,North,0,8.1,8.1,48,0.00,CLR,,0.00,WeatherDisplay:10.37,2013-09-12 15:33:00,
2013-09-12 10:34:00,72.0,50.6,28.91,North,0,10.4,10.4,47,0.00,CLR,,0.00,WeatherDisplay:10.37,2013-09-12 15:34:00,
2013-09-12 10:35:00,71.8,50.5,28.91,North,0,8.1,8.1,47,0.00,CLR,,0.00,WeatherDisplay:10.37,2013-09-12 15:35:00,
2013-09-12 10:36:00,71.8,50.5,28.91,NNE,22,6.2,6.2,47,0.00,CLR,,0.00,WeatherDisplay:10.37,2013-09-12 15:36:00,
2013-09-12 10:37:00,72.3,51.5,28.91,NW,315,5.8,5.8,48,0.00,CLR,,0.00,WeatherDisplay:10.37,2013-09-12 15:37:00,
2013-09-12 10:38:00,72.5,51.7,28.91,NW,315,6.9,6.9,48,0.00,CLR,,0.00,WeatherDisplay:10.37,2013-09-12 15:38:00,
2013-09-12 10:39:00,72.3,51.5,28.91,NW,315,6.9,6.9,48,0.00,CLR,,0.00,WeatherDisplay:10.37,2013-09-12 15:39:00,
2013-09-12 10:40:00,71.6,50.3,28.91,North,0,7.4,7.4,47,0.00,CLR,,0.00,WeatherDisplay:10.37,2013-09-12 15:40:00,
2013-09-12 10:41:00,71.6,50.3,28.91,NNW,338,8.1,8.1,47,0.00,CLR,,0.00,WeatherDisplay:10.37,2013-09-12 15:41:00,
2013-09-12 10:42:00,71.1,49.8,28.91,NW,315,9.2,9.2,47,0.00,CLR,,0.00,WeatherDisplay:10.37,2013-09-12 15:42:00,
2013-09-12 10:43:00,70.9,49.6,28.91,NW,315,8.1,8.1,47,0.00,CLR,,0.00,WeatherDisplay:10.37,2013-09-12 15:43:00,
2013-09-12 10:44:00,71.1,50.4,28.91,North,0,13.2,13.2,48,0.00,CLR,,0.00,WeatherDisplay:10.37,2013-09-12 15:44:00,
2013-09-12 10:46:00,70.9,49.6,28.91,North,0,6.9,8.5,47,0.00,CLR,,0.00,WeatherDisplay:10.37,2013-09-12 15:46:00,
2013-09-12 10:48:00,70.5,49.3,28.91,WNW,292,9.2,9.2,47,0.00,CLR,,0.00,WeatherDisplay:10.37,2013-09-12 15:48:00,
2013-09-12 10:49:00,70.9,50.2,28.91,NNW,338,6.9,6.9,48,0.00,CLR,,0.00,WeatherDisplay:10.37,2013-09-12 15:49:00,
2013-09-12 10:51:00,71.2,50.5,28.91,North,0,9.2,9.2,48,0.00,CLR,,0.00,WeatherDisplay:10.37,2013-09-12 15:51:00,
2013-09-12 10:53:00,71.8,51.0,28.91,NE,45,10.4,10.4,48,0.00,CLR,,0.00,WeatherDisplay:10.37,2013-09-12 15:53:00,
2013-09-12 10:54:00,71.8,51.0,28.91,ESE,112,10.4,10.4,48,0.00,CLR,,0.00,WeatherDisplay:10.37,2013-09-12 15:54:00,
2013-09-12 10:56:00,71.2,50.0,28.94,North,0,8.1,8.1,47,0.00,CLR,,0.00,WeatherDisplay:10.37,2013-09-12 15:56:00,
2013-09-12 10:57:00,71.1,49.2,28.94,NNE,22,6.9,6.9,46,0.00,CLR,,0.00,WeatherDisplay:10.37,2013-09-12 15:57:00,
2013-09-12 10:58:00,70.9,49.6,28.94,North,0,8.1,8.1,47,0.00,CLR,,0.00,WeatherDisplay:10.37,2013-09-12 15:58:00,
2013-09-12 10:59:00,70.9,49.6,28.94,NW,315,8.1,8.1,47,0.00,CLR,,0.00,WeatherDisplay:10.37,2013-09-12 15:59:00,
2013-09-12 11:00:00,71.1,49.2,28.94,North,0,10.7,10.7,46,0.00,CLR,,0.00,WeatherDisplay:10.37,2013-09-12 16:00:00,
2013-09-12 11:01:00,70.9,49.6,28.94,North,0,10.4,10.4,47,0.00,CLR,,0.00,WeatherDisplay:10.37,2013-09-12 16:01:00,
2013-09-12 11:02:00,70.9,49.6,28.94,NE,45,6.9,6.9,47,0.00,CLR,,0.00,WeatherDisplay:10.37,2013-09-12 16:02:00,
2013-09-12 11:04:00,71.2,50.0,28.94,North,0,6.9,6.9,47,0.00,CLR,,0.00,WeatherDisplay:10.37,2013-09-12 16:04:00,
2013-09-12 11:06:00,70.7,48.9,28.94,NNE,22,9.2,9.2,46,0.00,CLR,,0.00,WeatherDisplay:10.37,2013-09-12 16:06:00,
2013-09-12 11:08:00,71.2,50.0,28.94,NNE,22,5.8,5.8,47,0.00,CLR,,0.00,WeatherDisplay:10.37,2013-09-12 16:08:00,
2013-09-12 11:09:00,70.7,48.9,28.94,NNW,338,12.7,12.7,46,0.00,CLR,,0.00,WeatherDisplay:10.37,2013-09-12 16:09:00,
2013-09-12 11:10:00,70.2,48.4,28.94,North,0,12.7,12.7,46,0.00,CLR,,0.00,WeatherDisplay:10.37,2013-09-12 16:10:00,
2013-09-12 11:11:00,70.0,48.8,28.94,NW,315,10.4,10.4,47,0.00,CLR,,0.00,WeatherDisplay:10.37,2013-09-12 16:11:00,
2013-09-12 11:13:00,70.5,49.3,28.94,NE,45,5.8,5.8,47,0.00,CLR,,0.00,WeatherDisplay:10.37,2013-09-12 16:13:00,
2013-09-12 11:14:00,71.2,50.0,28.94,North,0,7.8,7.8,47,0.00,CLR,,0.00,WeatherDisplay:10.37,2013-09-12 16:14:00,
2013-09-12 11:15:00,71.2,50.0,28.94,North,0,8.1,8.1,47,0.00,CLR,,0.00,WeatherDisplay:10.37,2013-09-12 16:15:00,
2013-09-12 11:17:00,71.1,49.8,28.94,North,0,6.9,6.9,47,0.00,CLR,,0.00,WeatherDisplay:10.37,2013-09-12 16:17:00,
2013-09-12 11:18:00,71.1,49.8,28.94,North,0,7.4,7.4,47,0.00,CLR,,0.00,WeatherDisplay:10.37,2013-09-12 16:18:00,
2013-09-12 11:19:00,71.2,50.0,28.94,NW,315,8.1,8.1,47,0.00,CLR,,0.00,WeatherDisplay:10.37,2013-09-12 16:19:00,
2013-09-12 11:20:00,71.2,50.0,28.94,NW,315,5.8,5.9,47,0.00,CLR,,0.00,WeatherDisplay:10.37,2013-09-12 16:20:00,
2013-09-12 11:22:00,71.1,48.6,28.94,WNW,292,9.2,9.2,45,0.00,CLR,,0.00,WeatherDisplay:10.37,2013-09-12 16:22:00,
2013-09-12 11:23:00,69.8,46.9,28.94,North,0,15.0,15.0,44,0.00,CLR,,0.00,WeatherDisplay:10.37,2013-09-12 16:23:00,
2013-09-12 11:24:00,69.8,47.5,28.94,North,0,12.7,12.7,45,0.00,CLR,,0.00,WeatherDisplay:10.37,2013-09-12 16:24:00,
2013-09-12 11:25:00,69.1,47.4,28.88,WNW,292,10.7,10.7,46,0.00,CLR,,0.00,WeatherDisplay:10.37,2013-09-12 16:25:00,
2013-09-12 11:27:00,68.7,47.7,28.88,NW,315,12.7,12.7,47,0.00,CLR,,0.00,WeatherDisplay:10.37,2013-09-12 16:27:00,
2013-09-12 11:28:00,68.9,47.8,28.88,North,0,11.5,11.5,47,0.00,CLR,,0.00,WeatherDisplay:10.37,2013-09-12 16:28:00,
2013-09-12 11:29:00,69.1,48.0,28.88,NW,315,11.5,11.5,47,0.00,CLR,,0.00,WeatherDisplay:10.37,2013-09-12 16:29:00,
2013-09-12 11:30:00,69.4,48.3,28.88,ENE,68,8.1,8.1,47,0.00,CLR,,0.00,WeatherDisplay:10.37,2013-09-12 16:30:00,
2013-09-12 11:32:00,70.2,49.0,28.88,NW,315,8.1,8.1,47,0.00,CLR,,0.00,WeatherDisplay:10.37,2013-09-12 16:32:00,
2013-09-12 11:33:00,70.3,49.1,28.88,ENE,68,10.4,10.4,47,0.00,CLR,,0.00,WeatherDisplay:10.37,2013-09-12 16:33:00,
2013-09-12 11:34:00,70.9,49.6,28.88,NNE,22,5.6,5.6,47,0.00,CLR,,0.00,WeatherDisplay:10.37,2013-09-12 16:34:00,
2013-09-12 11:35:00,70.7,48.9,28.88,North,0,8.1,8.1,46,0.00,CLR,,0.00,WeatherDisplay:10.37,2013-09-12 16:35:00,
2013-09-12 11:37:00,71.1,49.2,28.88,NNW,338,5.8,5.8,46,0.00,CLR,,0.00,WeatherDisplay:10.37,2013-09-12 16:37:00,
2013-09-12 11:39:00,71.2,48.8,28.88,NW,315,10.4,10.4,45,0.00,CLR,,0.00,WeatherDisplay:10.37,2013-09-12 16:39:00,
2013-09-12 11:40:00,70.7,47.7,28.91,NW,315,10.4,10.4,44,0.00,CLR,,0.00,WeatherDisplay:10.37,2013-09-12 16:40:00,
2013-09-12 11:41:00,70.9,47.9,28.91,North,0,10.4,10.4,44,0.00,CLR,,0.00,WeatherDisplay:10.37,2013-09-12 16:41:00,
2013-09-12 11:42:00,70.5,47.5,28.91,NNW,338,12.7,12.7,44,0.00,CLR,,0.00,WeatherDisplay:10.37,2013-09-12 16:42:00,
2013-09-12 11:45:00,70.5,48.1,28.91,West,270,8.1,8.1,45,0.00,CLR,,0.00,WeatherDisplay:10.37,2013-09-12 16:45:00,
2013-09-12 11:46:00,70.7,48.3,28.91,NW,315,12.7,12.7,45,0.00,CLR,,0.00,WeatherDisplay:10.37,2013-09-12 16:46:00,
2013-09-12 11:47:00,70.7,48.3,28.91,WNW,292,8.1,8.1,45,0.00,CLR,,0.00,WeatherDisplay:10.37,2013-09-12 16:47:00,
2013-09-12 11:48:00,71.1,48.6,28.91,North,0,12.7,12.7,45,0.00,CLR,,0.00,WeatherDisplay:10.37,2013-09-12 16:48:00,
2013-09-12 11:50:00,69.8,46.9,28.91,North,0,10.4,10.4,44,0.00,CLR,,0.00,WeatherDisplay:10.37,2013-09-12 16:50:00,
2013-09-12 11:51:00,69.8,46.9,28.91,NNE,22,12.7,12.7,44,0.00,CLR,,0.00,WeatherDisplay:10.37,2013-09-12 16:51:00,
2013-09-12 11:52:00,69.8,46.9,28.91,North,0,10.4,10.4,44,0.00,CLR,,0.00,WeatherDisplay:10.37,2013-09-12 16:52:00,
2013-09-12 11:53:00,70.5,48.1,28.91,North,0,6.9,6.9,45,0.00,CLR,,0.00,WeatherDisplay:10.37,2013-09-12 16:53:00,
2013-09-12 11:55:00,71.2,48.2,28.91,NNW,338,9.2,9.2,44,0.00,CLR,,0.00,WeatherDisplay:10.37,2013-09-12 16:55:00,
2013-09-12 11:56:00,71.2,48.2,28.91,NE,45,9.2,9.2,44,0.00,CLR,,0.00,WeatherDisplay:10.37,2013-09-12 16:56:00,
2013-09-12 11:58:00,72.3,49.2,28.91,North,0,5.9,5.9,44,0.00,CLR,,0.00,WeatherDisplay:10.37,2013-09-12 16:58:00,
2013-09-12 12:00:00,72.7,49.5,28.91,NW,315,6.4,6.4,44,0.00,CLR,,0.00,WeatherDisplay:10.37,2013-09-12 17:00:00,
2013-09-12 12:01:00,72.7,49.5,28.91,NW,315,9.2,9.2,44,0.00,CLR,,0.00,WeatherDisplay:10.37,2013-09-12 17:01:00,
2013-09-12 12:02:00,72.7,49.5,28.91,NNE,22,10.9,10.9,44,0.00,CLR,,0.00,WeatherDisplay:10.37,2013-09-12 17:02:00,
2013-09-12 12:03:00,72.5,48.7,28.91,NW,315,13.2,13.2,43,0.00,CLR,,0.00,WeatherDisplay:10.37,2013-09-12 17:03:00,
2013-09-12 12:05:00,70.7,47.1,28.91,NNE,22,10.4,10.4,43,0.00,CLR,,0.00,WeatherDisplay:10.37,2013-09-12 17:05:00,
2013-09-12 12:06:00,70.7,47.1,28.91,NW,315,11.5,11.5,43,0.00,CLR,,0.00,WeatherDisplay:10.37,2013-09-12 17:06:00,
2013-09-12 12:08:00,70.7,47.1,28.91,NNE,22,9.2,9.2,43,0.00,CLR,,0.00,WeatherDisplay:10.37,2013-09-12 17:08:00,
2013-09-12 12:11:00,72.1,49.0,28.91,NW,315,8.1,8.1,44,0.00,CLR,,0.00,WeatherDisplay:10.37,2013-09-12 17:11:00,
2013-09-12 12:13:00,70.3,46.8,28.91,NW,315,12.7,12.7,43,0.00,CLR,,0.00,WeatherDisplay:10.37,2013-09-12 17:13:00,
2013-09-12 12:14:00,70.3,46.8,28.91,North,0,10.4,10.4,43,0.00,CLR,,0.00,WeatherDisplay:10.37,2013-09-12 17:14:00,
2013-09-12 12:16:00,70.0,47.1,28.91,NW,315,13.8,13.8,44,0.00,CLR,,0.00,WeatherDisplay:10.37,2013-09-12 17:16:00,
2013-09-12 12:17:00,70.0,47.1,28.91,NW,315,9.2,9.2,44,0.00,CLR,,0.00,WeatherDisplay:10.37,2013-09-12 17:17:00,
2013-09-12 12:18:00,70.3,48.0,28.91,NW,315,5.8,5.8,45,0.00,CLR,,0.00,WeatherDisplay:10.37,2013-09-12 17:18:00,
2013-09-12 12:19:00,70.3,48.0,28.91,NW,315,13.8,13.8,45,0.00,CLR,,0.00,WeatherDisplay:10.37,2013-09-12 17:19:00,
2013-09-12 12:21:00,68.9,47.3,28.91,NW,315,11.5,11.5,46,0.00,CLR,,0.00,WeatherDisplay:10.37,2013-09-12 17:21:00,
2013-09-12 12:22:00,68.9,47.3,28.91,NE,45,6.9,8.1,46,0.00,CLR,,0.00,WeatherDisplay:10.37,2013-09-12 17:22:00,
2013-09-12 12:24:00,70.0,47.7,28.91,North,0,10.5,10.5,45,0.00,CLR,,0.00,WeatherDisplay:10.37,2013-09-12 17:24:00,
2013-09-12 12:26:00,70.3,48.6,28.91,WNW,292,10.2,10.2,46,0.00,CLR,,0.00,WeatherDisplay:10.37,2013-09-12 17:26:00,
2013-09-12 12:27:00,70.3,48.0,28.91,NNW,338,10.4,10.4,45,0.00,CLR,,0.00,WeatherDisplay:10.37,2013-09-12 17:27:00,
2013-09-12 12:28:00,70.3,48.0,28.91,NW,315,10.4,10.4,45,0.00,CLR,,0.00,WeatherDisplay:10.37,2013-09-12 17:28:00,
2013-09-12 12:29:00,70.2,47.8,28.91,North,0,6.9,7.1,45,0.00,CLR,,0.00,WeatherDisplay:10.37,2013-09-12 17:29:00,
2013-09-12 12:30:00,70.0,48.2,28.91,NW,315,12.7,12.7,46,0.00,CLR,,0.00,WeatherDisplay:10.37,2013-09-12 17:30:00,
2013-09-12 12:31:00,70.2,47.8,28.91,NW,315,10.4,10.4,45,0.00,CLR,,0.00,WeatherDisplay:10.37,2013-09-12 17:31:00,
2013-09-12 12:32:00,69.8,46.9,28.91,West,270,13.0,13.0,44,0.00,CLR,,0.00,WeatherDisplay:10.37,2013-09-12 17:32:00,
2013-09-12 12:34:00,69.8,46.9,28.91,NNW,338,11.5,11.5,44,0.00,CLR,,0.00,WeatherDisplay:10.37,2013-09-12 17:34:00,
2013-09-12 12:35:00,70.0,47.7,28.91,North,0,9.2,9.2,45,0.00,CLR,,0.00,WeatherDisplay:10.37,2013-09-12 17:35:00,
2013-09-12 12:36:00,68.9,47.3,28.91,West,270,12.7,12.7,46,0.00,CLR,,0.00,WeatherDisplay:10.37,2013-09-12 17:36:00,
2013-09-12 12:38:00,69.3,47.6,28.91,NNW,338,12.7,12.7,46,0.00,CLR,,0.00,WeatherDisplay:10.37,2013-09-12 17:38:00,
2013-09-12 12:39:00,69.8,47.5,28.91,North,0,9.8,9.8,45,0.00,CLR,,0.00,WeatherDisplay:10.37,2013-09-12 17:39:00,
2013-09-12 12:40:00,69.8,47.5,28.91,NNW,338,10.4,10.4,45,0.00,CLR,,0.00,WeatherDisplay:10.37,2013-09-12 17:40:00,
2013-09-12 12:41:00,69.8,47.5,28.91,North,0,11.5,11.5,45,0.00,CLR,,0.00,WeatherDisplay:10.37,2013-09-12 17:41:00,
2013-09-12 12:42:00,69.8,47.5,28.91,NNW,338,11.5,11.5,45,0.00,CLR,,0.00,WeatherDisplay:10.37,2013-09-12 17:42:00,
2013-09-12 12:43:00,70.9,47.9,28.91,NNW,338,9.2,9.2,44,0.00,CLR,,0.00,WeatherDisplay:10.37,2013-09-12 17:43:00,
2013-09-12 12:44:00,70.9,47.9,28.91,NW,315,10.2,10.2,44,0.00,CLR,,0.00,WeatherDisplay:10.37,2013-09-12 17:44:00,
2013-09-12 12:46:00,70.0,47.7,28.91,NNW,338,11.5,11.5,45,0.00,CLR,,0.00,WeatherDisplay:10.37,2013-09-12 17:46:00,
2013-09-12 12:47:00,70.0,47.7,28.91,North,0,10.4,10.4,45,0.00,CLR,,0.00,WeatherDisplay:10.37,2013-09-12 17:47:00,
2013-09-12 12:48:00,70.0,47.7,28.91,NNE,22,10.4,10.4,45,0.00,CLR,,0.00,WeatherDisplay:10.37,2013-09-12 17:48:00,
2013-09-12 12:50:00,69.8,47.5,28.91,NW,315,8.1,8.1,45,0.00,CLR,,0.00,WeatherDisplay:10.37,2013-09-12 17:50:00,
2013-09-12 12:52:00,70.0,47.1,28.91,North,0,12.7,12.7,44,0.00,CLR,,0.00,WeatherDisplay:10.37,2013-09-12 17:52:00,
2013-09-12 12:53:00,70.3,47.4,28.91,NW,315,10.4,10.4,44,0.00,CLR,,0.00,WeatherDisplay:10.37,2013-09-12 17:53:00,
2013-09-12 12:55:00,70.5,47.5,28.91,NW,315,8.1,8.1,44,0.00,CLR,,0.00,WeatherDisplay:10.37,2013-09-12 17:55:00,
2013-09-12 12:57:00,71.2,48.2,28.91,WNW,292,5.8,6.2,44,0.00,CLR,,0.00,WeatherDisplay:10.37,2013-09-12 17:57:00,
2013-09-12 12:58:00,71.2,48.2,28.91,NNE,22,5.8,6.2,44,0.00,CLR,,0.00,WeatherDisplay:10.37,2013-09-12 17:58:00,
2013-09-12 12:59:00,71.4,48.4,28.91,NNE,22,3.5,4.0,44,0.00,CLR,,0.00,WeatherDisplay:10.37,2013-09-12 17:59:00,
2013-09-12 13:00:00,71.6,47.9,28.91,North,0,8.1,8.1,43,0.00,CLR,,0.00,WeatherDisplay:10.37,2013-09-12 18:00:00,
2013-09-12 13:02:00,71.2,47.0,28.91,NW,315,9.2,9.2,42,0.00,CLR,,0.00,WeatherDisplay:10.37,2013-09-12 18:02:00,
2013-09-12 13:03:00,71.2,47.0,28.91,NW,315,9.8,9.8,42,0.00,CLR,,0.00,WeatherDisplay:10.37,2013-09-12 18:03:00,
2013-09-12 13:04:00,71.1,46.8,28.91,WNW,292,10.4,10.4,42,0.00,CLR,,0.00,WeatherDisplay:10.37,2013-09-12 18:04:00,
2013-09-12 13:05:00,69.8,46.3,28.91,North,0,10.4,10.4,43,0.00,CLR,,0.00,WeatherDisplay:10.37,2013-09-12 18:05:00,
2013-09-12 13:06:00,70.0,46.4,28.91,NW,315,9.2,9.2,43,0.00,CLR,,0.00,WeatherDisplay:10.37,2013-09-12 18:06:00,
2013-09-12 13:08:00,70.3,47.4,28.91,NW,315,8.1,8.1,44,0.00,CLR,,0.00,WeatherDisplay:10.37,2013-09-12 18:08:00,
2013-09-12 13:09:00,71.1,48.0,28.91,North,0,6.9,6.9,44,0.00,CLR,,0.00,WeatherDisplay:10.37,2013-09-12 18:09:00,
2013-09-12 13:11:00,71.4,48.4,28.91,North,0,5.9,5.9,44,0.00,CLR,,0.00,WeatherDisplay:10.37,2013-09-12 18:11:00,
2013-09-12 13:12:00,71.8,48.1,28.91,NNE,22,8.5,8.5,43,0.00,CLR,,0.00,WeatherDisplay:10.37,2013-09-12 18:12:00,
2013-09-12 13:13:00,71.8,47.4,28.91,NNE,22,8.1,8.1,42,0.00,CLR,,0.00,WeatherDisplay:10.37,2013-09-12 18:13:00,
2013-09-12 13:14:00,71.4,47.1,28.91,North,0,10.4,10.4,42,0.00,CLR,,0.00,WeatherDisplay:10.37,2013-09-12 18:14:00,
2013-09-12 13:16:00,71.4,47.1,28.91,WNW,292,6.9,6.9,42,0.00,CLR,,0.00,WeatherDisplay:10.37,2013-09-12 18:16:00,
2013-09-12 13:17:00,71.2,47.0,28.91,NW,315,13.8,13.8,42,0.00,CLR,,0.00,WeatherDisplay:10.37,2013-09-12 18:17:00,
2013-09-12 13:18:00,71.1,47.4,28.91,North,0,13.8,13.8,43,0.00,CLR,,0.00,WeatherDisplay:10.37,2013-09-12 18:18:00,
2013-09-12 13:20:00,71.4,47.7,28.91,NNW,338,10.2,10.2,43,0.00,CLR,,0.00,WeatherDisplay:10.37,2013-09-12 18:20:00,
2013-09-12 13:21:00,71.4,47.7,28.91,NNW,338,11.5,11.5,43,0.00,CLR,,0.00,WeatherDisplay:10.37,2013-09-12 18:21:00,
2013-09-12 13:23:00,72.1,47.8,28.91,NNW,338,5.8,5.8,42,0.00,CLR,,0.00,WeatherDisplay:10.37,2013-09-12 18:23:00,
2013-09-12 13:25:00,71.6,46.0,28.91,North,0,11.5,11.5,40,0.00,CLR,,0.00,WeatherDisplay:10.37,2013-09-12 18:25:00,
2013-09-12 13:27:00,71.6,46.0,28.91,North,0,10.4,10.4,40,0.00,CLR,,0.00,WeatherDisplay:10.37,2013-09-12 18:27:00,
2013-09-12 13:28:00,72.1,47.1,28.91,WNW,292,8.5,8.5,41,0.00,CLR,,0.00,WeatherDisplay:10.37,2013-09-12 18:28:00,
2013-09-12 13:29:00,72.1,47.1,28.91,NW,315,8.5,8.5,41,0.00,CLR,,0.00,WeatherDisplay:10.37,2013-09-12 18:29:00,
2013-09-12 13:31:00,71.8,46.8,28.91,NNW,338,12.7,12.7,41,0.00,CLR,,0.00,WeatherDisplay:10.37,2013-09-12 18:31:00,
2013-09-12 13:32:00,71.6,46.6,28.91,WNW,292,10.4,10.4,41,0.00,CLR,,0.00,WeatherDisplay:10.37,2013-09-12 18:32:00,
2013-09-12 13:33:00,71.4,45.8,28.91,North,0,10.4,10.4,40,0.00,CLR,,0.00,WeatherDisplay:10.37,2013-09-12 18:33:00,
2013-09-12 13:34:00,72.1,46.5,28.91,NW,315,10.4,10.4,40,0.00,CLR,,0.00,WeatherDisplay:10.37,2013-09-12 18:34:00,
2013-09-12 13:37:00,72.0,47.0,28.91,North,0,11.5,11.5,41,0.00,CLR,,0.00,WeatherDisplay:10.37,2013-09-12 18:37:00,
2013-09-12 13:39:00,71.4,46.5,28.91,North,0,13.8,13.8,41,0.00,CLR,,0.00,WeatherDisplay:10.37,2013-09-12 18:39:00,
2013-09-12 13:40:00,71.8,46.2,28.91,North,0,13.8,13.8,40,0.00,CLR,,0.00,WeatherDisplay:10.37,2013-09-12 18:40:00,
2013-09-12 13:42:00,71.1,44.8,28.91,NW,315,17.3,17.3,39,0.00,CLR,,0.00,WeatherDisplay:10.37,2013-09-12 18:42:00,
2013-09-12 13:44:00,71.6,46.0,28.91,NW,315,9.2,9.2,40,0.00,CLR,,0.00,WeatherDisplay:10.37,2013-09-12 18:44:00,
2013-09-12 13:45:00,71.2,46.3,28.91,NNE,22,12.7,12.7,41,0.00,CLR,,0.00,WeatherDisplay:10.37,2013-09-12 18:45:00,
2013-09-12 13:46:00,70.5,45.7,28.91,NNW,338,13.8,13.8,41,0.00,CLR,,0.00,WeatherDisplay:10.37,2013-09-12 18:46:00,
2013-09-12 13:47:00,70.0,45.2,28.91,NW,315,9.2,9.2,41,0.00,CLR,,0.00,WeatherDisplay:10.37,2013-09-12 18:47:00,
2013-09-12 13:48:00,70.0,45.2,28.91,NNW,338,10.4,10.4,41,0.00,CLR,,0.00,WeatherDisplay:10.37,2013-09-12 18:48:00,
2013-09-12 13:49:00,70.3,46.2,28.91,NNW,338,9.2,9.2,42,0.00,CLR,,0.00,WeatherDisplay:10.37,2013-09-12 18:49:00,
2013-09-12 13:50:00,70.0,45.8,28.91,WNW,292,10.5,10.5,42,0.00,CLR,,0.00,WeatherDisplay:10.37,2013-09-12 18:50:00,
2013-09-12 13:51:00,70.3,46.2,28.91,NNE,22,12.8,12.8,42,0.00,CLR,,0.00,WeatherDisplay:10.37,2013-09-12 18:51:00,
2013-09-12 13:52:00,70.3,45.5,28.91,NNW,338,12.7,12.7,41,0.00,CLR,,0.00,WeatherDisplay:10.37,2013-09-12 18:52:00,
2013-09-12 13:53:00,71.1,46.8,28.91,NNW,338,12.7,12.7,42,0.00,CLR,,0.00,WeatherDisplay:10.37,2013-09-12 18:53:00,
2013-09-12 13:54:00,71.8,47.4,28.91,NW,315,5.9,5.9,42,0.00,CLR,,0.00,WeatherDisplay:10.37,2013-09-12 18:54:00,
2013-09-12 13:57:00,70.9,46.0,28.91,WNW,292,11.5,11.5,41,0.00,CLR,,0.00,WeatherDisplay:10.37,2013-09-12 18:57:00,
2013-09-12 13:58:00,70.9,46.0,28.91,NW,315,10.4,10.4,41,0.00,CLR,,0.00,WeatherDisplay:10.37,2013-09-12 18:58:00,
2013-09-12 13:59:00,70.9,46.0,28.91,NNW,338,10.4,10.4,41,0.00,CLR,,0.00,WeatherDisplay:10.37,2013-09-12 18:59:00,
2013-09-12 14:00:00,71.4,46.5,28.91,North,0,8.1,8.1,41,0.00,CLR,,0.00,WeatherDisplay:10.37,2013-09-12 19:00:00,
2013-09-12 14:03:00,70.2,44.7,28.91,North,0,12.7,12.7,40,0.00,CLR,,0.00,WeatherDisplay:10.37,2013-09-12 19:03:00,
2013-09-12 14:04:00,70.2,44.7,28.91,NE,45,12.7,12.7,40,0.00,CLR,,0.00,WeatherDisplay:10.37,2013-09-12 19:04:00,
2013-09-12 14:05:00,69.6,44.9,28.91,NNW,338,10.4,10.4,41,0.00,CLR,,0.00,WeatherDisplay:10.37,2013-09-12 19:05:00,
2013-09-12 14:08:00,69.6,45.5,28.91,West,270,12.7,12.7,42,0.00,CLR,,0.00,WeatherDisplay:10.37,2013-09-12 19:08:00,
2013-09-12 14:09:00,70.2,46.0,28.91,NW,315,10.4,10.4,42,0.00,CLR,,0.00,WeatherDisplay:10.37,2013-09-12 19:09:00,
2013-09-12 14:10:00,70.2,46.0,28.91,NNW,338,11.5,11.5,42,0.00,CLR,,0.00,WeatherDisplay:10.37,2013-09-12 19:10:00,
2013-09-12 14:13:00,70.7,45.8,28.91,NNW,338,9.2,9.2,41,0.00,CLR,,0.00,WeatherDisplay:10.37,2013-09-12 19:13:00,
2013-09-12 14:14:00,70.7,45.8,28.91,NW,315,9.2,9.2,41,0.00,CLR,,0.00,WeatherDisplay:10.37,2013-09-12 19:14:00,
2013-09-12 14:15:00,70.3,45.5,28.91,NE,45,13.8,13.8,41,0.00,CLR,,0.00,WeatherDisplay:10.37,2013-09-12 19:15:00,
2013-09-12 14:16:00,70.2,44.7,28.91,North,0,13.8,13.8,40,0.00,CLR,,0.00,WeatherDisplay:10.37,2013-09-12 19:16:00,
2013-09-12 14:19:00,70.0,44.5,28.91,NW,315,10.4,10.4,40,0.00,CLR,,0.00,WeatherDisplay:10.37,2013-09-12 19:19:00,
2013-09-12 14:20:00,70.0,44.5,28.91,North,0,13.8,13.8,40,0.00,CLR,,0.00,WeatherDisplay:10.37,2013-09-12 19:20:00,
2013-09-12 14:21:00,69.8,44.4,28.91,NE,45,12.1,12.1,40,0.00,CLR,,0.00,WeatherDisplay:10.37,2013-09-12 19:21:00,
2013-09-12 14:24:00,70.7,45.8,28.94,NW,315,12.7,12.7,41,0.00,CLR,,0.00,WeatherDisplay:10.37,2013-09-12 19:24:00,
2013-09-12 14:25:00,70.7,45.8,28.94,NNW,338,10.4,10.4,41,0.00,CLR,,0.00,WeatherDisplay:10.37,2013-09-12 19:25:00,
2013-09-12 14:26:00,70.9,45.3,28.94,NNW,338,11.4,11.4,40,0.00,CLR,,0.00,WeatherDisplay:10.37,2013-09-12 19:26:00,
2013-09-12 14:30:00,69.8,44.4,28.94,NW,315,10.4,10.4,40,0.00,CLR,,0.00,WeatherDisplay:10.37,2013-09-12 19:30:00,
2013-09-12 14:31:00,69.8,44.4,28.94,WNW,292,11.5,11.5,40,0.00,CLR,,0.00,WeatherDisplay:10.37,2013-09-12 19:31:00,
2013-09-12 14:32:00,69.3,43.9,28.94,WNW,292,15.0,15.0,40,0.00,CLR,,0.00,WeatherDisplay:10.37,2013-09-12 19:32:00,
2013-09-12 14:35:00,69.6,44.2,28.94,NW,315,10.4,10.4,40,0.00,CLR,,0.00,WeatherDisplay:10.37,2013-09-12 19:35:00,
2013-09-12 14:36:00,69.6,44.2,28.94,WNW,292,11.5,11.5,40,0.00,CLR,,0.00,WeatherDisplay:10.37,2013-09-12 19:36:00,
2013-09-12 14:37:00,69.6,44.2,28.94,NW,315,11.5,11.5,40,0.00,CLR,,0.00,WeatherDisplay:10.37,2013-09-12 19:37:00,
2013-09-12 14:38:00,69.6,44.2,28.94,WNW,292,10.4,10.4,40,0.00,CLR,,0.00,WeatherDisplay:10.37,2013-09-12 19:38:00,
2013-09-12 14:40:00,69.3,43.9,28.91,North,0,9.2,9.2,40,0.00,CLR,,0.00,WeatherDisplay:10.37,2013-09-12 19:40:00,
2013-09-12 14:41:00,69.1,43.7,28.91,NW,315,12.1,12.1,40,0.00,CLR,,0.00,WeatherDisplay:10.37,2013-09-12 19:41:00,
2013-09-12 14:43:00,68.9,43.6,28.91,North,0,12.7,12.7,40,0.00,CLR,,0.00,WeatherDisplay:10.37,2013-09-12 19:43:00,
2013-09-12 14:45:00,68.5,43.2,28.91,North,0,10.5,10.5,40,0.00,CLR,,0.00,WeatherDisplay:10.37,2013-09-12 19:45:00,
2013-09-12 14:46:00,68.4,43.1,28.91,North,0,10.4,10.4,40,0.00,CLR,,0.00,WeatherDisplay:10.37,2013-09-12 19:46:00,
2013-09-12 14:48:00,69.3,44.5,28.91,NNW,338,5.9,5.9,41,0.00,CLR,,0.00,WeatherDisplay:10.37,2013-09-12 19:48:00,
2013-09-12 14:49:00,69.3,44.5,28.91,North,0,5.8,5.8,41,0.00,CLR,,0.00,WeatherDisplay:10.37,2013-09-12 19:49:00,
2013-09-12 14:50:00,69.4,44.7,28.91,NNW,338,6.9,6.9,41,0.00,CLR,,0.00,WeatherDisplay:10.37,2013-09-12 19:50:00,
2013-09-12 14:51:00,69.4,44.7,28.91,North,0,6.4,6.4,41,0.00,CLR,,0.00,WeatherDisplay:10.37,2013-09-12 19:51:00,
2013-09-12 14:52:00,69.4,44.7,28.91,WNW,292,9.2,9.2,41,0.00,CLR,,0.00,WeatherDisplay:10.37,2013-09-12 19:52:00,
2013-09-12 14:53:00,69.4,44.1,28.91,North,0,13.8,13.8,40,0.00,CLR,,0.00,WeatherDisplay:10.37,2013-09-12 19:53:00,
2013-09-12 14:54:00,69.4,44.1,28.91,NNW,338,13.8,13.8,40,0.00,CLR,,0.00,WeatherDisplay:10.37,2013-09-12 19:54:00,
2013-09-12 14:55:00,68.9,43.6,28.91,North,0,13.8,13.8,40,0.00,CLR,,0.00,WeatherDisplay:10.37,2013-09-12 19:55:00,
2013-09-12 14:56:00,69.4,44.7,28.91,NNW,338,10.4,10.4,41,0.00,CLR,,0.00,WeatherDisplay:10.37,2013-09-12 19:56:00,
2013-09-12 14:57:00,69.4,44.7,28.91,NW,315,8.1,8.1,41,0.00,CLR,,0.00,WeatherDisplay:10.37,2013-09-12 19:57:00,
2013-09-12 14:58:00,70.0,45.2,28.91,NW,315,8.1,8.1,41,0.00,CLR,,0.00,WeatherDisplay:10.37,2013-09-12 19:58:00,
2013-09-12 14:59:00,70.9,45.3,28.91,NNW,338,12.7,12.7,40,0.00,CLR,,0.00,WeatherDisplay:10.37,2013-09-12 19:59:00,
2013-09-12 15:00:00,70.9,45.3,28.91,NW,315,12.7,12.7,40,0.00,CLR,,0.00,WeatherDisplay:10.37,2013-09-12 20:00:00,
2013-09-12 15:01:00,71.1,44.2,28.91,North,0,10.4,10.7,38,0.00,CLR,,0.00,WeatherDisplay:10.37,2013-09-12 20:01:00,
2013-09-12 15:02:00,71.2,44.3,28.91,NNW,338,10.4,10.4,38,0.00,CLR,,0.00,WeatherDisplay:10.37,2013-09-12 20:02:00,
2013-09-12 15:04:00,71.6,44.6,28.91,NNW,338,12.1,12.1,38,0.00,CLR,,0.00,WeatherDisplay:10.37,2013-09-12 20:04:00,
2013-09-12 15:06:00,71.6,43.2,28.91,West,270,12.7,12.7,36,0.00,CLR,,0.00,WeatherDisplay:10.37,2013-09-12 20:06:00,
2013-09-12 15:07:00,71.8,43.4,28.91,NNW,338,11.5,11.5,36,0.00,CLR,,0.00,WeatherDisplay:10.37,2013-09-12 20:07:00,
2013-09-12 15:09:00,72.5,44.7,28.91,NW,315,8.1,8.1,37,0.00,CLR,,0.00,WeatherDisplay:10.37,2013-09-12 20:09:00,
2013-09-12 15:11:00,73.0,44.5,28.91,NW,315,9.8,9.8,36,0.00,CLR,,0.00,WeatherDisplay:10.37,2013-09-12 20:11:00,
2013-09-12 15:12:00,72.7,43.4,28.91,NW,315,12.7,12.7,35,0.00,CLR,,0.00,WeatherDisplay:10.37,2013-09-12 20:12:00,
2013-09-12 15:14:00,72.3,43.1,28.91,NNW,338,10.4,10.4,35,0.00,CLR,,0.00,WeatherDisplay:10.37,2013-09-12 20:14:00,
2013-09-12 15:16:00,71.8,42.6,28.91,NW,315,9.2,9.2,35,0.00,CLR,,0.00,WeatherDisplay:10.37,2013-09-12 20:16:00,
2013-09-12 15:17:00,71.6,42.5,28.91,NW,315,10.9,10.9,35,0.00,CLR,,0.00,WeatherDisplay:10.37,2013-09-12 20:17:00,
2013-09-12 15:18:00,71.4,43.1,28.91,NW,315,11.5,11.5,36,0.00,CLR,,0.00,WeatherDisplay:10.37,2013-09-12 20:18:00,
2013-09-12 15:19:00,71.6,42.5,28.91,NNW,338,10.7,10.7,35,0.00,CLR,,0.00,WeatherDisplay:10.37,2013-09-12 20:19:00,
2013-09-12 15:21:00,71.2,42.2,28.91,NNW,338,8.7,8.7,35,0.00,CLR,,0.00,WeatherDisplay:10.37,2013-09-12 20:21:00,
2013-09-12 15:22:00,71.2,42.2,28.91,NNW,338,10.4,10.4,35,0.00,CLR,,0.00,WeatherDisplay:10.37,2013-09-12 20:22:00,
2013-09-12 15:23:00,71.2,42.2,28.91,NNW,338,10.4,10.4,35,0.00,CLR,,0.00,WeatherDisplay:10.37,2013-09-12 20:23:00,
2013-09-12 15:24:00,71.4,43.1,28.91,North,0,9.2,9.2,36,0.00,CLR,,0.00,WeatherDisplay:10.37,2013-09-12 20:24:00,
2013-09-12 15:26:00,70.7,40.9,28.91,North,0,10.4,10.4,34,0.00,CLR,,0.00,WeatherDisplay:10.37,2013-09-12 20:26:00,
2013-09-12 15:27:00,70.2,41.2,28.91,NW,315,10.4,10.4,35,0.00,CLR,,0.00,WeatherDisplay:10.37,2013-09-12 20:27:00,
2013-09-12 15:28:00,70.2,41.2,28.91,NW,315,12.7,12.7,35,0.00,CLR,,0.00,WeatherDisplay:10.37,2013-09-12 20:28:00,
2013-09-12 15:29:00,69.6,41.5,28.91,NNW,338,10.4,10.5,36,0.00,CLR,,0.00,WeatherDisplay:10.37,2013-09-12 20:29:00,
2013-09-12 15:31:00,69.1,41.0,28.91,WNW,292,12.7,12.7,36,0.00,CLR,,0.00,WeatherDisplay:10.37,2013-09-12 20:31:00,
2013-09-12 15:32:00,68.9,41.5,28.91,NW,315,15.0,15.0,37,0.00,CLR,,0.00,WeatherDisplay:10.37,2013-09-12 20:32:00,
2013-09-12 15:33:00,68.9,41.5,28.91,NW,315,15.0,15.0,37,0.00,CLR,,0.00,WeatherDisplay:10.37,2013-09-12 20:33:00,
2013-09-12 15:34:00,69.1,42.4,28.91,NW,315,11.5,11.5,38,0.00,CLR,,0.00,WeatherDisplay:10.37,2013-09-12 20:34:00,
2013-09-12 15:35:00,69.1,42.4,28.91,North,0,11.5,11.5,38,0.00,CLR,,0.00,WeatherDisplay:10.37,2013-09-12 20:35:00,
2013-09-12 15:36:00,69.4,42.7,28.91,NNW,338,9.2,9.2,38,0.00,CLR,,0.00,WeatherDisplay:10.37,2013-09-12 20:36:00,
2013-09-12 15:38:00,70.2,43.4,28.91,NNW,338,8.1,8.1,38,0.00,CLR,,0.00,WeatherDisplay:10.37,2013-09-12 20:38:00,
2013-09-12 15:40:00,69.6,42.2,28.91,NW,315,9.2,9.2,37,0.00,CLR,,0.00,WeatherDisplay:10.37,2013-09-12 20:40:00,
2013-09-12 15:41:00,69.4,42.0,28.91,NNW,338,12.7,12.7,37,0.00,CLR,,0.00,WeatherDisplay:10.37,2013-09-12 20:41:00,
2013-09-12 15:43:00,70.2,41.9,28.91,NW,315,10.4,10.4,36,0.00,CLR,,0.00,WeatherDisplay:10.37,2013-09-12 20:43:00,
2013-09-12 15:45:00,70.9,41.9,28.91,NW,315,12.7,12.7,35,0.00,CLR,,0.00,WeatherDisplay:10.37,2013-09-12 20:45:00,
2013-09-12 15:46:00,71.2,42.2,28.91,NNW,338,12.7,12.7,35,0.00,CLR,,0.00,WeatherDisplay:10.37,2013-09-12 20:46:00,
2013-09-12 15:48:00,71.4,42.3,28.91,NNW,338,9.2,9.2,35,0.00,CLR,,0.00,WeatherDisplay:10.37,2013-09-12 20:48:00,
2013-09-12 15:51:00,71.4,43.1,28.91,NW,315,4.6,4.9,36,0.00,CLR,,0.00,WeatherDisplay:10.37,2013-09-12 20:51:00,
2013-09-12 15:52:00,71.4,42.3,28.91,North,0,12.1,12.1,35,0.00,CLR,,0.00,WeatherDisplay:10.37,2013-09-12 20:52:00,
2013-09-12 15:53:00,71.6,42.5,28.91,WNW,292,11.5,11.5,35,0.00,CLR,,0.00,WeatherDisplay:10.37,2013-09-12 20:53:00,
2013-09-12 15:56:00,71.6,41.7,28.88,NNW,338,10.4,10.4,34,0.00,CLR,,0.00,WeatherDisplay:10.37,2013-09-12 20:56:00,
2013-09-12 15:57:00,71.8,42.6,28.88,WNW,292,10.4,10.4,35,0.00,CLR,,0.00,WeatherDisplay:10.37,2013-09-12 20:57:00,
2013-09-12 15:58:00,72.1,42.2,28.88,NNW,338,6.7,6.7,34,0.00,CLR,,0.00,WeatherDisplay:10.37,2013-09-12 20:58:00,
2013-09-12 15:59:00,72.3,42.4,28.88,WNW,292,9.2,9.2,34,0.00,CLR,,0.00,WeatherDisplay:10.37,2013-09-12 20:59:00,
2013-09-12 16:01:00,72.3,42.4,28.88,WNW,292,10.5,10.5,34,0.00,CLR,,0.00,WeatherDisplay:10.37,2013-09-12 21:01:00,
2013-09-12 16:02:00,72.3,42.4,28.88,NNW,338,10.4,10.4,34,0.00,CLR,,0.00,WeatherDisplay:10.37,2013-09-12 21:02:00,
2013-09-12 16:03:00,72.7,42.7,28.88,NW,315,9.2,9.2,34,0.00,CLR,,0.00,WeatherDisplay:10.37,2013-09-12 21:03:00,
2013-09-12 16:04:00,73.0,43.0,28.88,NW,315,8.5,8.5,34,0.00,CLR,,0.00,WeatherDisplay:10.37,2013-09-12 21:04:00,
2013-09-12 16:06:00,72.3,41.6,28.88,NNW,338,13.8,13.8,33,0.00,CLR,,0.00,WeatherDisplay:10.37,2013-09-12 21:06:00,
2013-09-12 16:08:00,71.4,41.6,28.88,NW,315,15.0,15.0,34,0.00,CLR,,0.00,WeatherDisplay:10.37,2013-09-12 21:08:00,
2013-09-12 16:09:00,70.9,41.1,28.88,NW,315,13.8,13.8,34,0.00,CLR,,0.00,WeatherDisplay:10.37,2013-09-12 21:09:00,
2013-09-12 16:11:00,70.9,41.1,28.88,WNW,292,10.4,10.4,34,0.00,CLR,,0.00,WeatherDisplay:10.37,2013-09-12 21:11:00,
2013-09-12 16:12:00,70.9,41.1,28.88,WNW,292,8.1,8.1,34,0.00,CLR,,0.00,WeatherDisplay:10.37,2013-09-12 21:12:00,
2013-09-12 16:13:00,71.1,42.0,28.88,NNW,338,8.1,8.1,35,0.00,CLR,,0.00,WeatherDisplay:10.37,2013-09-12 21:13:00,
2013-09-12 16:14:00,71.1,42.0,28.88,NW,315,8.1,8.1,35,0.00,CLR,,0.00,WeatherDisplay:10.37,2013-09-12 21:14:00,
2013-09-12 16:17:00,70.7,40.9,28.88,North,0,8.1,8.1,34,0.00,CLR,,0.00,WeatherDisplay:10.37,2013-09-12 21:17:00,
2013-09-12 16:18:00,70.7,41.7,28.88,NW,315,8.1,8.1,35,0.00,CLR,,0.00,WeatherDisplay:10.37,2013-09-12 21:18:00,
2013-09-12 16:19:00,70.7,41.7,28.88,NW,315,9.2,9.2,35,0.00,CLR,,0.00,WeatherDisplay:10.37,2013-09-12 21:19:00,
2013-09-12 16:20:00,70.9,41.9,28.88,WNW,292,6.4,6.4,35,0.00,CLR,,0.00,WeatherDisplay:10.37,2013-09-12 21:20:00,
2013-09-12 16:22:00,70.9,41.9,28.88,NW,315,5.8,5.8,35,0.00,CLR,,0.00,WeatherDisplay:10.37,2013-09-12 21:22:00,
2013-09-12 16:23:00,70.7,41.7,28.88,West,270,9.7,9.7,35,0.00,CLR,,0.00,WeatherDisplay:10.37,2013-09-12 21:23:00,
2013-09-12 16:24:00,70.7,41.7,28.88,NW,315,9.2,9.2,35,0.00,CLR,,0.00,WeatherDisplay:10.37,2013-09-12 21:24:00,
2013-09-12 16:25:00,70.3,41.4,28.88,NNW,338,8.5,8.5,35,0.00,CLR,,0.00,WeatherDisplay:10.37,2013-09-12 21:25:00,
2013-09-12 16:27:00,70.5,41.5,28.88,WNW,292,12.1,12.1,35,0.00,CLR,,0.00,WeatherDisplay:10.37,2013-09-12 21:27:00,
2013-09-12 16:28:00,70.2,41.9,28.88,NNW,338,12.7,12.7,36,0.00,CLR,,0.00,WeatherDisplay:10.37,2013-09-12 21:28:00,
2013-09-12 16:29:00,69.8,41.6,28.88,WNW,292,8.7,8.7,36,0.00,CLR,,0.00,WeatherDisplay:10.37,2013-09-12 21:29:00,
2013-09-12 16:30:00,69.8,41.6,28.88,NNW,338,9.2,9.2,36,0.00,CLR,,0.00,WeatherDisplay:10.37,2013-09-12 21:30:00,
2013-09-12 16:33:00,69.4,41.3,28.88,WNW,292,8.5,8.5,36,0.00,CLR,,0.00,WeatherDisplay:10.37,2013-09-12 21:33:00,
2013-09-12 16:34:00,69.3,41.2,28.88,WNW,292,12.7,12.7,36,0.00,CLR,,0.00,WeatherDisplay:10.37,2013-09-12 21:34:00,
2013-09-12 16:35:00,69.1,41.0,28.88,NW,315,10.4,10.4,36,0.00,CLR,,0.00,WeatherDisplay:10.37,2013-09-12 21:35:00,
2013-09-12 16:36:00,69.1,41.7,28.88,North,0,8.1,8.1,37,0.00,CLR,,0.00,WeatherDisplay:10.37,2013-09-12 21:36:00,
2013-09-12 16:38:00,69.1,41.7,28.88,NW,315,9.2,9.2,37,0.00,CLR,,0.00,WeatherDisplay:10.37,2013-09-12 21:38:00,
2013-09-12 16:39:00,68.9,41.5,28.88,NW,315,9.2,9.2,37,0.00,CLR,,0.00,WeatherDisplay:10.37,2013-09-12 21:39:00,
2013-09-12 16:40:00,68.9,41.5,28.88,NW,315,9.2,9.2,37,0.00,CLR,,0.00,WeatherDisplay:10.37,2013-09-12 21:40:00,
2013-09-12 16:42:00,68.7,42.1,28.88,NNE,22,6.9,6.9,38,0.00,CLR,,0.00,WeatherDisplay:10.37,2013-09-12 21:42:00,
2013-09-12 16:43:00,68.7,42.1,28.88,North,0,6.9,6.9,38,0.00,CLR,,0.00,WeatherDisplay:10.37,2013-09-12 21:43:00,
2013-09-12 16:44:00,68.7,42.1,28.88,NNW,338,8.1,8.1,38,0.00,CLR,,0.00,WeatherDisplay:10.37,2013-09-12 21:44:00,
2013-09-12 16:45:00,68.7,42.1,28.88,NW,315,8.1,8.1,38,0.00,CLR,,0.00,WeatherDisplay:10.37,2013-09-12 21:45:00,
2013-09-12 16:46:00,68.5,41.9,28.88,NW,315,9.2,9.2,38,0.00,CLR,,0.00,WeatherDisplay:10.37,2013-09-12 21:46:00,
2013-09-12 16:47:00,68.5,41.9,28.88,NW,315,9.2,9.2,38,0.00,CLR,,0.00,WeatherDisplay:10.37,2013-09-12 21:47:00,
2013-09-12 16:48:00,68.5,41.9,28.88,NW,315,5.8,5.8,38,0.00,CLR,,0.00,WeatherDisplay:10.37,2013-09-12 21:48:00,
2013-09-12 16:49:00,68.5,41.9,28.88,NW,315,4.6,4.6,38,0.00,CLR,,0.00,WeatherDisplay:10.37,2013-09-12 21:49:00,
2013-09-12 16:50:00,68.5,41.9,28.88,North,0,10.2,10.2,38,0.00,CLR,,0.00,WeatherDisplay:10.37,2013-09-12 21:50:00,
2013-09-12 16:52:00,69.3,41.9,28.88,NW,315,11.5,11.5,37,0.00,CLR,,0.00,WeatherDisplay:10.37,2013-09-12 21:52:00,
2013-09-12 16:53:00,69.6,42.2,28.88,WNW,292,10.4,10.4,37,0.00,CLR,,0.00,WeatherDisplay:10.37,2013-09-12 21:53:00,
2013-09-12 16:54:00,69.6,42.9,28.88,NNW,338,9.2,9.2,38,0.00,CLR,,0.00,WeatherDisplay:10.37,2013-09-12 21:54:00,
2013-09-12 16:56:00,70.5,42.3,28.88,WNW,292,9.2,9.2,36,0.00,CLR,,0.00,WeatherDisplay:10.37,2013-09-12 21:56:00,
2013-09-12 16:58:00,70.7,42.4,28.88,NNW,338,10.7,10.7,36,0.00,CLR,,0.00,WeatherDisplay:10.37,2013-09-12 21:58:00,
2013-09-12 16:59:00,70.7,41.7,28.88,NW,315,11.5,11.5,35,0.00,CLR,,0.00,WeatherDisplay:10.37,2013-09-12 21:59:00,
2013-09-12 17:01:00,70.9,41.9,28.88,WNW,292,13.5,13.5,35,0.00,CLR,,0.00,WeatherDisplay:10.37,2013-09-12 22:01:00,
2013-09-12 17:03:00,70.9,41.9,28.88,North,0,10.5,10.5,35,0.00,CLR,,0.00,WeatherDisplay:10.37,2013-09-12 22:03:00,
2013-09-12 17:04:00,70.9,41.9,28.88,North,0,13.8,13.8,35,0.00,CLR,,0.00,WeatherDisplay:10.37,2013-09-12 22:04:00,
2013-09-12 17:06:00,71.2,42.2,28.88,NW,315,10.4,10.4,35,0.00,CLR,,0.00,WeatherDisplay:10.37,2013-09-12 22:06:00,
2013-09-12 17:07:00,71.8,42.6,28.88,NW,315,10.4,10.4,35,0.00,CLR,,0.00,WeatherDisplay:10.37,2013-09-12 22:07:00,
2013-09-12 17:09:00,71.4,42.3,28.88,WSW,248,11.5,11.5,35,0.00,CLR,,0.00,WeatherDisplay:10.37,2013-09-12 22:09:00,
2013-09-12 17:11:00,71.1,42.0,28.88,WNW,292,13.8,13.8,35,0.00,CLR,,0.00,WeatherDisplay:10.37,2013-09-12 22:11:00,
2013-09-12 17:12:00,70.9,41.9,28.88,NW,315,12.7,12.7,35,0.00,CLR,,0.00,WeatherDisplay:10.37,2013-09-12 22:12:00,
2013-09-12 17:14:00,70.9,41.9,28.88,NNW,338,9.2,9.2,35,0.00,CLR,,0.00,WeatherDisplay:10.37,2013-09-12 22:14:00,
2013-09-12 17:15:00,70.9,41.9,28.88,NW,315,11.5,11.5,35,0.00,CLR,,0.00,WeatherDisplay:10.37,2013-09-12 22:15:00,
2013-09-12 17:17:00,71.2,42.2,28.88,NW,315,12.7,12.7,35,0.00,CLR,,0.00,WeatherDisplay:10.37,2013-09-12 22:17:00,
2013-09-12 17:18:00,71.2,42.2,28.88,NNW,338,11.5,11.5,35,0.00,CLR,,0.00,WeatherDisplay:10.37,2013-09-12 22:18:00,
2013-09-12 17:19:00,71.2,42.2,28.88,North,0,11.5,11.5,35,0.00,CLR,,0.00,WeatherDisplay:10.37,2013-09-12 22:19:00,
2013-09-12 17:20:00,71.2,42.2,28.88,NW,315,11.5,11.5,35,0.00,CLR,,0.00,WeatherDisplay:10.37,2013-09-12 22:20:00,
2013-09-12 17:21:00,71.2,42.2,28.88,NW,315,11.5,11.5,35,0.00,CLR,,0.00,WeatherDisplay:10.37,2013-09-12 22:21:00,
2013-09-12 17:22:00,71.2,42.2,28.88,NNW,338,9.2,9.2,35,0.00,CLR,,0.00,WeatherDisplay:10.37,2013-09-12 22:22:00,
2013-09-12 17:23:00,71.2,42.2,28.88,NW,315,9.2,9.2,35,0.00,CLR,,0.00,WeatherDisplay:10.37,2013-09-12 22:23:00,
2013-09-12 17:25:00,71.4,42.3,28.88,NNW,338,9.7,9.7,35,0.00,CLR,,0.00,WeatherDisplay:10.37,2013-09-12 22:25:00,
2013-09-12 17:26:00,71.6,42.5,28.88,ENE,68,9.2,9.2,35,0.00,CLR,,0.00,WeatherDisplay:10.37,2013-09-12 22:26:00,
2013-09-12 17:28:00,71.8,41.9,28.88,NNE,22,10.7,10.7,34,0.00,CLR,,0.00,WeatherDisplay:10.37,2013-09-12 22:28:00,
2013-09-12 17:30:00,71.6,41.7,28.88,NW,315,8.1,8.1,34,0.00,CLR,,0.00,WeatherDisplay:10.37,2013-09-12 22:30:00,
2013-09-12 17:31:00,71.6,41.7,28.88,NNW,338,8.7,8.7,34,0.00,CLR,,0.00,WeatherDisplay:10.37,2013-09-12 22:31:00,
2013-09-12 17:32:00,71.6,41.7,28.88,North,0,9.2,9.2,34,0.00,CLR,,0.00,WeatherDisplay:10.37,2013-09-12 22:32:00,
2013-09-12 17:33:00,71.8,41.9,28.88,NW,315,8.1,8.1,34,0.00,CLR,,0.00,WeatherDisplay:10.37,2013-09-12 22:33:00,
2013-09-12 17:35:00,71.8,41.9,28.88,NNW,338,6.9,6.9,34,0.00,CLR,,0.00,WeatherDisplay:10.37,2013-09-12 22:35:00,
2013-09-12 17:36:00,72.0,42.8,28.88,NW,315,9.2,9.2,35,0.00,CLR,,0.00,WeatherDisplay:10.37,2013-09-12 22:36:00,
2013-09-12 17:38:00,72.0,42.0,28.88,NW,315,5.8,5.8,34,0.00,CLR,,0.00,WeatherDisplay:10.37,2013-09-12 22:38:00,
2013-09-12 17:40:00,72.0,42.0,28.88,NW,315,8.5,8.5,34,0.00,CLR,,0.00,WeatherDisplay:10.37,2013-09-12 22:40:00,
2013-09-12 17:41:00,71.8,41.1,28.88,North,0,13.8,13.8,33,0.00,CLR,,0.00,WeatherDisplay:10.37,2013-09-12 22:41:00,
2013-09-12 17:43:00,71.8,41.9,28.88,NW,315,10.0,10.0,34,0.00,CLR,,0.00,WeatherDisplay:10.37,2013-09-12 22:43:00,
2013-09-12 17:45:00,71.6,41.0,28.88,NW,315,10.4,10.4,33,0.00,CLR,,0.00,WeatherDisplay:10.37,2013-09-12 22:45:00,
2013-09-12 17:46:00,71.4,40.8,28.88,NW,315,10.4,10.4,33,0.00,CLR,,0.00,WeatherDisplay:10.37,2013-09-12 22:46:00,
2013-09-12 17:48:00,71.2,40.6,28.88,WNW,292,12.7,12.7,33,0.00,CLR,,0.00,WeatherDisplay:10.37,2013-09-12 22:48:00,
2013-09-12 17:49:00,71.1,40.5,28.88,NW,315,13.8,13.8,33,0.00,CLR,,0.00,WeatherDisplay:10.37,2013-09-12 22:49:00,
2013-09-12 17:50:00,71.1,40.5,28.88,North,0,13.8,13.8,33,0.00,CLR,,0.00,WeatherDisplay:10.37,2013-09-12 22:50:00,
2013-09-12 17:51:00,71.1,40.5,28.88,North,0,10.4,10.4,33,0.00,CLR,,0.00,WeatherDisplay:10.37,2013-09-12 22:51:00,
2013-09-12 17:52:00,70.9,40.3,28.88,North,0,12.7,12.7,33,0.00,CLR,,0.00,WeatherDisplay:10.37,2013-09-12 22:52:00,
2013-09-12 17:53:00,70.9,40.3,28.88,NNW,338,9.2,9.2,33,0.00,CLR,,0.00,WeatherDisplay:10.37,2013-09-12 22:53:00,
2013-09-12 17:54:00,70.9,40.3,28.88,North,0,9.8,9.8,33,0.00,CLR,,0.00,WeatherDisplay:10.37,2013-09-12 22:54:00,
2013-09-12 17:55:00,70.9,40.3,28.88,NW,315,9.2,9.2,33,0.00,CLR,,0.00,WeatherDisplay:10.37,2013-09-12 22:55:00,
2013-09-12 17:56:00,70.7,40.2,28.88,North,0,10.4,10.4,33,0.00,CLR,,0.00,WeatherDisplay:10.37,2013-09-12 22:56:00,
2013-09-12 17:58:00,70.7,40.2,28.88,NNE,22,10.5,10.5,33,0.00,CLR,,0.00,WeatherDisplay:10.37,2013-09-12 22:58:00,
2013-09-12 17:59:00,70.5,40.0,28.88,North,0,10.4,10.4,33,0.00,CLR,,0.00,WeatherDisplay:10.37,2013-09-12 22:59:00,
2013-09-12 18:00:00,70.5,40.0,28.88,NE,45,8.1,8.1,33,0.00,CLR,,0.00,WeatherDisplay:10.37,2013-09-12 23:00:00,
2013-09-12 18:01:00,70.5,40.0,28.88,NW,315,9.2,9.2,33,0.00,CLR,,0.00,WeatherDisplay:10.37,2013-09-12 23:01:00,
2013-09-12 18:03:00,70.5,40.0,28.88,NW,315,10.4,10.4,33,0.00,CLR,,0.00,WeatherDisplay:10.37,2013-09-12 23:03:00,
2013-09-12 18:04:00,70.5,40.0,28.88,NW,315,6.9,6.9,33,0.00,CLR,,0.00,WeatherDisplay:10.37,2013-09-12 23:04:00,
2013-09-12 18:05:00,70.5,40.0,28.88,North,0,8.1,8.1,33,0.00,CLR,,0.00,WeatherDisplay:10.37,2013-09-12 23:05:00,
2013-09-12 18:06:00,70.3,39.9,28.88,NW,315,8.1,9.0,33,0.00,CLR,,0.00,WeatherDisplay:10.37,2013-09-12 23:06:00,
2013-09-12 18:09:00,70.3,39.9,28.88,NNW,338,8.1,8.1,33,0.00,CLR,,0.00,WeatherDisplay:10.37,2013-09-12 23:09:00,
2013-09-12 18:10:00,70.3,39.9,28.88,North,0,10.7,10.7,33,0.00,CLR,,0.00,WeatherDisplay:10.37,2013-09-12 23:10:00,
2013-09-12 18:11:00,70.2,39.7,28.88,NW,315,10.4,10.4,33,0.00,CLR,,0.00,WeatherDisplay:10.37,2013-09-12 23:11:00,
2013-09-12 18:12:00,70.2,39.7,28.88,NNE,22,8.1,8.1,33,0.00,CLR,,0.00,WeatherDisplay:10.37,2013-09-12 23:12:00,
2013-09-12 18:14:00,70.2,39.7,28.88,NW,315,6.9,6.9,33,0.00,CLR,,0.00,WeatherDisplay:10.37,2013-09-12 23:14:00,
2013-09-12 18:15:00,70.2,39.7,28.88,North,0,8.1,8.1,33,0.00,CLR,,0.00,WeatherDisplay:10.37,2013-09-12 23:15:00,
2013-09-12 18:16:00,70.0,39.5,28.88,SE,135,8.1,8.1,33,0.00,CLR,,0.00,WeatherDisplay:10.37,2013-09-12 23:16:00,
2013-09-12 18:17:00,70.0,39.5,28.88,North,0,8.1,8.1,33,0.00,CLR,,0.00,WeatherDisplay:10.37,2013-09-12 23:17:00,
2013-09-12 18:19:00,69.6,39.2,28.88,NNW,338,11.5,11.5,33,0.00,CLR,,0.00,WeatherDisplay:10.37,2013-09-12 23:19:00,
2013-09-12 18:20:00,69.6,39.2,28.88,NW,315,6.9,6.9,33,0.00,CLR,,0.00,WeatherDisplay:10.37,2013-09-12 23:20:00,
2013-09-12 18:22:00,69.4,39.8,28.88,North,0,8.1,8.1,34,0.00,CLR,,0.00,WeatherDisplay:10.37,2013-09-12 23:22:00,
2013-09-12 18:24:00,69.3,39.7,28.88,NNW,338,10.4,10.4,34,0.00,CLR,,0.00,WeatherDisplay:10.37,2013-09-12 23:24:00,
2013-09-12 18:25:00,69.1,39.5,28.88,North,0,10.4,10.4,34,0.00,CLR,,0.00,WeatherDisplay:10.37,2013-09-12 23:25:00,
2013-09-12 18:26:00,68.9,39.4,28.88,NW,315,6.9,6.9,34,0.00,CLR,,0.00,WeatherDisplay:10.37,2013-09-12 23:26:00,
2013-09-12 18:27:00,68.9,39.4,28.88,NNW,338,6.2,6.2,34,0.00,CLR,,0.00,WeatherDisplay:10.37,2013-09-12 23:27:00,
2013-09-12 18:30:00,68.9,39.4,28.88,North,0,5.8,5.8,34,0.00,CLR,,0.00,WeatherDisplay:10.37,2013-09-12 23:30:00,
2013-09-12 18:31:00,68.5,39.0,28.88,NW,315,6.9,6.9,34,0.00,CLR,,0.00,WeatherDisplay:10.37,2013-09-12 23:31:00,
2013-09-12 18:32:00,68.5,39.0,28.88,NW,315,5.8,5.8,34,0.00,CLR,,0.00,WeatherDisplay:10.37,2013-09-12 23:32:00,
2013-09-12 18:35:00,68.2,38.7,28.88,NNW,338,6.4,6.4,34,0.00,CLR,,0.00,WeatherDisplay:10.37,2013-09-12 23:35:00,
2013-09-12 18:36:00,68.2,38.7,28.88,NNW,338,8.1,8.1,34,0.00,CLR,,0.00,WeatherDisplay:10.37,2013-09-12 23:36:00,
2013-09-12 18:37:00,68.2,39.5,28.88,NW,315,6.9,6.9,35,0.00,CLR,,0.00,WeatherDisplay:10.37,2013-09-12 23:37:00,
2013-09-12 18:40:00,68.0,39.3,28.91,North,0,5.8,5.8,35,0.00,CLR,,0.00,WeatherDisplay:10.37,2013-09-12 23:40:00,
2013-09-12 18:42:00,68.0,39.3,28.91,North,0,5.8,5.8,35,0.00,CLR,,0.00,WeatherDisplay:10.37,2013-09-12 23:42:00,
2013-09-12 18:43:00,68.0,39.3,28.91,North,0,6.9,6.9,35,0.00,CLR,,0.00,WeatherDisplay:10.37,2013-09-12 23:43:00,
2013-09-12 18:45:00,67.8,39.9,28.91,North,0,5.8,5.8,36,0.00,CLR,,0.00,WeatherDisplay:10.37,2013-09-12 23:45:00,
2013-09-12 18:46:00,67.8,39.9,28.91,North,0,5.8,5.8,36,0.00,CLR,,0.00,WeatherDisplay:10.37,2013-09-12 23:46:00,
2013-09-12 18:47:00,67.8,39.9,28.91,NW,315,5.8,5.8,36,0.00,CLR,,0.00,WeatherDisplay:10.37,2013-09-12 23:47:00,
2013-09-12 18:48:00,67.6,39.7,28.91,NNW,338,5.8,5.8,36,0.00,CLR,,0.00,WeatherDisplay:10.37,2013-09-12 23:48:00,
2013-09-12 18:51:00,67.3,39.4,28.91,North,0,8.1,8.1,36,0.00,CLR,,0.00,WeatherDisplay:10.37,2013-09-12 23:51:00,
2013-09-12 18:52:00,67.1,39.2,28.91,North,0,9.2,9.2,36,0.00,CLR,,0.00,WeatherDisplay:10.37,2013-09-12 23:52:00,
2013-09-12 18:53:00,66.9,39.1,28.91,NW,315,9.7,9.7,36,0.00,CLR,,0.00,WeatherDisplay:10.37,2013-09-12 23:53:00,
2013-09-12 18:56:00,66.7,39.6,28.91,WNW,292,6.9,6.9,37,0.00,CLR,,0.00,WeatherDisplay:10.37,2013-09-12 23:56:00,
2013-09-12 18:57:00,66.7,38.9,28.91,NW,315,6.9,6.9,36,0.00,CLR,,0.00,WeatherDisplay:10.37,2013-09-12 23:57:00,
2013-09-12 18:58:00,66.6,38.8,28.91,North,0,11.5,11.5,36,0.00,CLR,,0.00,WeatherDisplay:10.37,2013-09-12 23:58:00,
2013-09-12 18:59:00,66.6,38.8,28.91,NW,315,11.5,11.5,36,0.00,CLR,,0.00,WeatherDisplay:10.37,2013-09-12 23:59:00,
2013-09-12 19:01:00,66.4,38.6,28.91,NW,315,8.5,8.5,36,0.00,CLR,,0.00,WeatherDisplay:10.37,2013-09-13 00:01:00,
2013-09-12 19:02:00,66.4,39.3,28.91,NNW,338,8.1,8.1,37,0.00,CLR,,0.00,WeatherDisplay:10.37,2013-09-13 00:02:00,
2013-09-12 19:03:00,66.4,39.3,28.91,NW,315,10.4,10.4,37,0.00,CLR,,0.00,WeatherDisplay:10.37,2013-09-13 00:03:00,
2013-09-12 19:04:00,66.2,39.1,28.91,NNW,343,5.0,10.0,37,0.00,CLR,,0.00,WeatherDisplay:10.37,2013-09-13 00:04:00,
2013-09-12 19:06:00,66.0,39.7,28.91,NW,315,8.1,8.1,38,0.00,CLR,,0.00,WeatherDisplay:10.37,2013-09-13 00:06:00,
2013-09-12 19:07:00,66.0,39.7,28.91,North,0,8.1,8.1,38,0.00,CLR,,0.00,WeatherDisplay:10.37,2013-09-13 00:07:00,
2013-09-12 19:08:00,66.0,39.7,28.91,NNW,338,10.5,10.5,38,0.00,CLR,,0.00,WeatherDisplay:10.37,2013-09-13 00:08:00,
2013-09-12 19:09:00,65.8,39.5,28.91,NW,315,10.4,10.4,38,0.00,CLR,,0.00,WeatherDisplay:10.37,2013-09-13 00:09:00,
2013-09-12 19:10:00,65.8,39.5,28.91,NNW,338,9.2,9.2,38,0.00,CLR,,0.00,WeatherDisplay:10.37,2013-09-13 00:10:00,
2013-09-12 19:11:00,65.8,39.5,28.91,NW,315,8.1,8.1,38,0.00,CLR,,0.00,WeatherDisplay:10.37,2013-09-13 00:11:00,
2013-09-12 19:13:00,65.8,39.5,28.91,NW,315,8.1,8.1,38,0.00,CLR,,0.00,WeatherDisplay:10.37,2013-09-13 00:13:00,
2013-09-12 19:15:00,65.7,39.3,28.91,NNW,338,9.2,9.2,38,0.00,CLR,,0.00,WeatherDisplay:10.37,2013-09-13 00:15:00,
2013-09-12 19:16:00,65.5,39.2,28.91,NNW,338,9.2,9.2,38,0.00,CLR,,0.00,WeatherDisplay:10.37,2013-09-13 00:16:00,
2013-09-12 19:18:00,65.5,39.9,28.91,NW,315,6.9,6.9,39,0.00,CLR,,0.00,WeatherDisplay:10.37,2013-09-13 00:18:00,
2013-09-12 19:20:00,65.1,39.5,28.91,NW,315,8.1,8.1,39,0.00,CLR,,0.00,WeatherDisplay:10.37,2013-09-13 00:20:00,
2013-09-12 19:21:00,65.1,39.5,28.91,NW,315,8.1,8.1,39,0.00,CLR,,0.00,WeatherDisplay:10.37,2013-09-13 00:21:00,
2013-09-12 19:23:00,64.9,39.4,28.91,NNW,338,4.6,4.6,39,0.00,CLR,,0.00,WeatherDisplay:10.37,2013-09-13 00:23:00,
2013-09-12 19:25:00,64.8,39.9,28.88,NNW,338,4.6,4.6,40,0.00,CLR,,0.00,WeatherDisplay:10.37,2013-09-13 00:25:00,
2013-09-12 19:26:00,64.6,39.7,28.88,NNW,338,7.8,7.8,40,0.00,CLR,,0.00,WeatherDisplay:10.37,2013-09-13 00:26:00,
2013-09-12 19:27:00,64.6,39.0,28.88,North,0,8.1,8.1,39,0.00,CLR,,0.00,WeatherDisplay:10.37,2013-09-13 00:27:00,
2013-09-12 19:28:00,64.6,39.7,28.88,North,0,8.1,8.1,40,0.00,CLR,,0.00,WeatherDisplay:10.37,2013-09-13 00:28:00,
2013-09-12 19:31:00,64.6,39.7,28.88,NNW,338,6.9,6.9,40,0.00,CLR,,0.00,WeatherDisplay:10.37,2013-09-13 00:31:00,
2013-09-12 19:32:00,64.4,39.5,28.88,North,0,5.8,5.8,40,0.00,CLR,,0.00,WeatherDisplay:10.37,2013-09-13 00:32:00,
2013-09-12 19:33:00,64.4,39.5,28.88,NNW,338,6.9,6.9,40,0.00,CLR,,0.00,WeatherDisplay:10.37,2013-09-13 00:33:00,
2013-09-12 19:36:00,64.2,40.0,28.88,NNW,338,5.8,5.8,41,0.00,CLR,,0.00,WeatherDisplay:10.37,2013-09-13 00:36:00,
2013-09-12 19:38:00,64.0,39.8,28.88,NNW,338,5.8,5.8,41,0.00,CLR,,0.00,WeatherDisplay:10.37,2013-09-13 00:38:00,
2013-09-12 19:39:00,64.0,39.8,28.88,North,0,8.1,8.1,41,0.00,CLR,,0.00,WeatherDisplay:10.37,2013-09-13 00:39:00,
2013-09-12 19:41:00,64.0,39.8,28.91,North,0,5.9,5.9,41,0.00,CLR,,0.00,WeatherDisplay:10.37,2013-09-13 00:41:00,
2013-09-12 19:42:00,63.9,40.3,28.91,NNW,338,8.1,8.1,42,0.00,CLR,,0.00,WeatherDisplay:10.37,2013-09-13 00:42:00,
2013-09-12 19:43:00,63.9,40.3,28.91,NNW,338,6.9,6.9,42,0.00,CLR,,0.00,WeatherDisplay:10.37,2013-09-13 00:43:00,
2013-09-12 19:44:00,63.9,40.3,28.91,NW,315,8.1,8.1,42,0.00,CLR,,0.00,WeatherDisplay:10.37,2013-09-13 00:44:00,
2013-09-12 19:46:00,63.9,40.3,28.91,North,0,9.2,9.2,42,0.00,CLR,,0.00,WeatherDisplay:10.37,2013-09-13 00:46:00,
2013-09-12 19:47:00,63.9,40.3,28.91,NNE,22,8.1,8.1,42,0.00,CLR,,0.00,WeatherDisplay:10.37,2013-09-13 00:47:00,
2013-09-12 19:48:00,63.7,40.1,28.91,NW,315,5.8,5.8,42,0.00,CLR,,0.00,WeatherDisplay:10.37,2013-09-13 00:48:00,
2013-09-12 19:49:00,63.5,40.0,28.91,NW,315,5.8,5.8,42,0.00,CLR,,0.00,WeatherDisplay:10.37,2013-09-13 00:49:00,
2013-09-12 19:51:00,63.5,40.6,28.91,NNW,338,8.1,8.1,43,0.00,CLR,,0.00,WeatherDisplay:10.37,2013-09-13 00:51:00,
2013-09-12 19:52:00,63.5,40.6,28.91,NNW,338,5.8,5.9,43,0.00,CLR,,0.00,WeatherDisplay:10.37,2013-09-13 00:52:00,
2013-09-12 19:53:00,63.3,40.4,28.91,NW,315,5.8,5.8,43,0.00,CLR,,0.00,WeatherDisplay:10.37,2013-09-13 00:53:00,
2013-09-12 19:54:00,63.1,40.3,28.91,NNW,338,5.8,5.8,43,0.00,CLR,,0.00,WeatherDisplay:10.37,2013-09-13 00:54:00,
2013-09-12 19:57:00,63.0,40.1,28.91,NW,315,4.6,4.6,43,0.00,CLR,,0.00,WeatherDisplay:10.37,2013-09-13 00:57:00,
2013-09-12 19:58:00,63.0,40.1,28.91,NW,315,2.6,2.9,43,0.00,CLR,,0.00,WeatherDisplay:10.37,2013-09-13 00:58:00,
2013-09-12 19:59:00,62.8,40.5,28.91,NNW,338,6.9,6.9,44,0.00,CLR,,0.00,WeatherDisplay:10.37,2013-09-13 00:59:00,
2013-09-12 20:00:00,62.8,40.5,28.91,NNW,338,6.9,6.9,44,0.00,CLR,,0.00,WeatherDisplay:10.37,2013-09-13 01:00:00,
2013-09-12 20:02:00,62.6,40.4,28.91,North,0,5.8,5.8,44,0.00,CLR,,0.00,WeatherDisplay:10.37,2013-09-13 01:02:00,
2013-09-12 20:04:00,62.4,40.2,28.91,North,0,5.8,5.8,44,0.00,CLR,,0.00,WeatherDisplay:10.37,2013-09-13 01:04:00,
2013-09-12 20:05:00,62.4,40.2,28.91,NW,315,3.6,3.6,44,0.00,CLR,,0.00,WeatherDisplay:10.37,2013-09-13 01:05:00,
2013-09-12 20:07:00,62.2,40.6,28.91,NW,315,4.6,4.6,45,0.00,CLR,,0.00,WeatherDisplay:10.37,2013-09-13 01:07:00,
2013-09-12 20:09:00,62.1,40.5,28.91,North,0,3.5,3.5,45,0.00,CLR,,0.00,WeatherDisplay:10.37,2013-09-13 01:09:00,
2013-09-12 20:10:00,62.1,40.5,28.91,WNW,292,8.1,8.1,45,0.00,CLR,,0.00,WeatherDisplay:10.37,2013-09-13 01:10:00,
2013-09-12 20:13:00,62.1,40.5,28.91,NW,315,4.9,4.9,45,0.00,CLR,,0.00,WeatherDisplay:10.37,2013-09-13 01:13:00,
2013-09-12 20:14:00,61.9,40.9,28.91,NNW,338,5.8,5.8,46,0.00,CLR,,0.00,WeatherDisplay:10.37,2013-09-13 01:14:00,
2013-09-12 20:15:00,61.9,40.9,28.91,NW,315,5.8,5.8,46,0.00,CLR,,0.00,WeatherDisplay:10.37,2013-09-13 01:15:00,
2013-09-12 20:17:00,61.9,40.9,28.91,North,0,8.1,8.1,46,0.00,CLR,,0.00,WeatherDisplay:10.37,2013-09-13 01:17:00,
2013-09-12 20:18:00,61.9,40.9,28.91,NW,315,4.6,4.6,46,0.00,CLR,,0.00,WeatherDisplay:10.37,2013-09-13 01:18:00,
2013-09-12 20:19:00,61.9,40.9,28.91,North,0,5.8,5.8,46,0.00,CLR,,0.00,WeatherDisplay:10.37,2013-09-13 01:19:00,
2013-09-12 20:20:00,61.7,40.7,28.91,NNW,338,5.8,5.8,46,0.00,CLR,,0.00,WeatherDisplay:10.37,2013-09-13 01:20:00,
2013-09-12 20:21:00,61.7,40.7,28.91,NNW,338,5.8,5.8,46,0.00,CLR,,0.00,WeatherDisplay:10.37,2013-09-13 01:21:00,
2013-09-12 20:23:00,61.7,40.7,28.91,NNE,22,5.8,5.8,46,0.00,CLR,,0.00,WeatherDisplay:10.37,2013-09-13 01:23:00,
2013-09-12 20:24:00,61.5,40.5,28.91,NNW,338,4.6,4.6,46,0.00,CLR,,0.00,WeatherDisplay:10.37,2013-09-13 01:24:00,
2013-09-12 20:26:00,61.3,40.4,28.94,NNW,338,4.6,4.6,46,0.00,CLR,,0.00,WeatherDisplay:10.37,2013-09-13 01:26:00,
2013-09-12 20:27:00,61.3,40.4,28.94,North,0,5.8,5.8,46,0.00,CLR,,0.00,WeatherDisplay:10.37,2013-09-13 01:27:00,
2013-09-12 20:28:00,61.3,40.9,28.94,North,0,5.8,5.8,47,0.00,CLR,,0.00,WeatherDisplay:10.37,2013-09-13 01:28:00,
2013-09-12 20:29:00,61.3,40.9,28.94,NW,315,4.0,4.0,47,0.00,CLR,,0.00,WeatherDisplay:10.37,2013-09-13 01:29:00,
2013-09-12 20:31:00,61.2,40.8,28.94,NW,315,8.1,8.1,47,0.00,CLR,,0.00,WeatherDisplay:10.37,2013-09-13 01:31:00,
2013-09-12 20:33:00,61.2,40.8,28.94,NNW,338,6.0,6.0,47,0.00,CLR,,0.00,WeatherDisplay:10.37,2013-09-13 01:33:00,
2013-09-12 20:34:00,61.2,40.8,28.94,NNW,338,7.4,7.4,47,0.00,CLR,,0.00,WeatherDisplay:10.37,2013-09-13 01:34:00,
2013-09-12 20:35:00,61.3,40.9,28.94,NNW,338,8.1,8.1,47,0.00,CLR,,0.00,WeatherDisplay:10.37,2013-09-13 01:35:00,
2013-09-12 20:36:00,61.3,40.9,28.94,NNW,338,5.8,5.8,47,0.00,CLR,,0.00,WeatherDisplay:10.37,2013-09-13 01:36:00,
2013-09-12 20:38:00,61.2,40.8,28.94,North,0,5.8,5.8,47,0.00,CLR,,0.00,WeatherDisplay:10.37,2013-09-13 01:38:00,
2013-09-12 20:39:00,61.2,40.8,28.94,North,0,5.8,5.9,47,0.00,CLR,,0.00,WeatherDisplay:10.37,2013-09-13 01:39:00,
2013-09-12 20:42:00,61.2,40.8,28.94,North,0,6.2,6.2,47,0.00,CLR,,0.00,WeatherDisplay:10.37,2013-09-13 01:42:00,
2013-09-12 20:44:00,61.2,40.8,28.94,NNW,348,7.0,9.0,47,0.00,CLR,,0.00,WeatherDisplay:10.37,2013-09-13 01:44:00,
2013-09-12 20:45:00,61.2,40.8,28.94,North,0,8.1,8.1,47,0.00,CLR,,0.00,WeatherDisplay:10.37,2013-09-13 01:45:00,
2013-09-12 20:47:00,61.0,40.6,28.94,North,0,7.8,7.8,47,0.00,CLR,,0.00,WeatherDisplay:10.37,2013-09-13 01:47:00,
2013-09-12 20:49:00,61.0,40.6,28.94,North,351,5.0,8.0,47,0.00,CLR,,0.00,WeatherDisplay:10.37,2013-09-13 01:49:00,
2013-09-12 20:50:00,61.0,40.6,28.94,NNW,338,8.1,8.1,47,0.00,CLR,,0.00,WeatherDisplay:10.37,2013-09-13 01:50:00,
2013-09-12 20:51:00,61.0,40.6,28.94,NNW,338,6.0,6.0,47,0.00,CLR,,0.00,WeatherDisplay:10.37,2013-09-13 01:51:00,
2013-09-12 20:52:00,60.8,40.4,28.94,NW,315,5.8,5.8,47,0.00,CLR,,0.00,WeatherDisplay:10.37,2013-09-13 01:52:00,
2013-09-12 20:54:00,60.8,41.0,28.94,North,0,5.8,5.8,48,0.00,CLR,,0.00,WeatherDisplay:10.37,2013-09-13 01:54:00,
2013-09-12 20:55:00,60.8,40.4,28.94,NNE,22,5.8,5.8,47,0.00,CLR,,0.00,WeatherDisplay:10.37,2013-09-13 01:55:00,
2013-09-12 20:57:00,60.6,40.8,28.94,NNE,22,5.8,5.8,48,0.00,CLR,,0.00,WeatherDisplay:10.37,2013-09-13 01:57:00,
2013-09-12 20:58:00,60.6,40.8,28.94,NNW,338,9.2,9.2,48,0.00,CLR,,0.00,WeatherDisplay:10.37,2013-09-13 01:58:00,
2013-09-12 20:59:00,60.6,40.8,28.94,NNW,338,9.2,9.2,48,0.00,CLR,,0.00,WeatherDisplay:10.37,2013-09-13 01:59:00,
2013-09-12 21:00:00,60.6,40.8,28.94,North,0,9.2,9.2,48,0.00,CLR,,0.00,WeatherDisplay:10.37,2013-09-13 02:00:00,
2013-09-12 21:02:00,60.4,40.6,28.94,NW,315,8.1,8.1,48,0.00,CLR,,0.00,WeatherDisplay:10.37,2013-09-13 02:02:00,
2013-09-12 21:04:00,60.4,40.6,28.94,NNE,22,8.1,8.1,48,0.00,CLR,,0.00,WeatherDisplay:10.37,2013-09-13 02:04:00,
2013-09-12 21:05:00,60.4,40.6,28.94,NNW,338,8.1,8.1,48,0.00,CLR,,0.00,WeatherDisplay:10.37,2013-09-13 02:05:00,
2013-09-12 21:07:00,60.3,41.0,28.94,North,0,7.4,7.4,49,0.00,CLR,,0.00,WeatherDisplay:10.37,2013-09-13 02:07:00,
2013-09-12 21:09:00,60.3,41.0,28.94,NNW,338,8.1,8.1,49,0.00,CLR,,0.00,WeatherDisplay:10.37,2013-09-13 02:09:00,
2013-09-12 21:10:00,60.3,41.0,28.97,North,0,4.7,4.7,49,0.00,CLR,,0.00,WeatherDisplay:10.37,2013-09-13 02:10:00,
2013-09-12 21:12:00,60.1,40.8,28.97,North,0,7.8,7.8,49,0.00,CLR,,0.00,WeatherDisplay:10.37,2013-09-13 02:12:00,
2013-09-12 21:13:00,60.1,40.8,28.97,NNW,338,8.1,8.1,49,0.00,CLR,,0.00,WeatherDisplay:10.37,2013-09-13 02:13:00,
2013-09-12 21:14:00,60.1,40.8,28.97,North,0,5.6,5.6,49,0.00,CLR,,0.00,WeatherDisplay:10.37,2013-09-13 02:14:00,
2013-09-12 21:15:00,60.1,40.8,28.97,West,270,5.8,5.8,49,0.00,CLR,,0.00,WeatherDisplay:10.37,2013-09-13 02:15:00,
2013-09-12 21:16:00,60.1,40.8,28.97,NNW,338,6.9,6.9,49,0.00,CLR,,0.00,WeatherDisplay:10.37,2013-09-13 02:16:00,
2013-09-12 21:17:00,59.9,40.7,28.97,NW,315,7.4,7.4,49,0.00,CLR,,0.00,WeatherDisplay:10.37,2013-09-13 02:17:00,
2013-09-12 21:18:00,59.9,40.7,28.97,NNW,338,6.9,6.9,49,0.00,CLR,,0.00,WeatherDisplay:10.37,2013-09-13 02:18:00,
2013-09-12 21:20:00,59.7,40.5,28.97,North,0,5.8,5.8,49,0.00,CLR,,0.00,WeatherDisplay:10.37,2013-09-13 02:20:00,
2013-09-12 21:21:00,59.7,40.5,28.97,NNW,338,5.8,5.8,49,0.00,CLR,,0.00,WeatherDisplay:10.37,2013-09-13 02:21:00,
2013-09-12 21:23:00,59.5,40.3,28.97,NW,315,4.6,4.6,49,0.00,CLR,,0.00,WeatherDisplay:10.37,2013-09-13 02:23:00,
2013-09-12 21:25:00,59.4,40.7,28.97,North,0,3.5,3.5,50,0.00,CLR,,0.00,WeatherDisplay:10.37,2013-09-13 02:25:00,
2013-09-12 21:26:00,59.4,40.7,28.97,North,0,5.9,5.9,50,0.00,CLR,,0.00,WeatherDisplay:10.37,2013-09-13 02:26:00,
2013-09-12 21:28:00,59.2,40.5,28.97,NNW,338,5.8,5.8,50,0.00,CLR,,0.00,WeatherDisplay:10.37,2013-09-13 02:28:00,
2013-09-12 21:30:00,59.2,40.5,28.97,NNW,338,5.8,5.8,50,0.00,CLR,,0.00,WeatherDisplay:10.37,2013-09-13 02:30:00,
2013-09-12 21:31:00,59.2,40.5,28.97,North,0,6.9,6.9,50,0.00,CLR,,0.00,WeatherDisplay:10.37,2013-09-13 02:31:00,
2013-09-12 21:33:00,59.0,40.9,28.97,North,0,8.1,8.1,51,0.00,CLR,,0.00,WeatherDisplay:10.37,2013-09-13 02:33:00,
2013-09-12 21:35:00,59.0,40.9,28.97,North,0,4.6,4.6,51,0.00,CLR,,0.00,WeatherDisplay:10.37,2013-09-13 02:35:00,
2013-09-12 21:36:00,59.0,40.9,28.97,North,0,3.5,3.5,51,0.00,CLR,,0.00,WeatherDisplay:10.37,2013-09-13 02:36:00,
2013-09-12 21:38:00,58.6,40.6,28.97,North,0,5.8,5.8,51,0.00,CLR,,0.00,WeatherDisplay:10.37,2013-09-13 02:38:00,
2013-09-12 21:41:00,58.6,40.6,28.97,NNW,338,4.6,4.6,51,0.00,CLR,,0.00,WeatherDisplay:10.37,2013-09-13 02:41:00,
2013-09-12 21:43:00,58.5,40.9,28.97,North,0,5.8,5.8,52,0.00,CLR,,0.00,WeatherDisplay:10.37,2013-09-13 02:43:00,
2013-09-12 21:44:00,58.5,40.9,28.97,North,0,5.8,5.8,52,0.00,CLR,,0.00,WeatherDisplay:10.37,2013-09-13 02:44:00,
2013-09-12 21:46:00,58.5,40.9,28.97,NNW,338,4.6,4.6,52,0.00,CLR,,0.00,WeatherDisplay:10.37,2013-09-13 02:46:00,
2013-09-12 21:47:00,58.3,40.7,28.97,North,0,4.6,4.6,52,0.00,CLR,,0.00,WeatherDisplay:10.37,2013-09-13 02:47:00,
2013-09-12 21:48:00,58.3,40.7,28.97,NW,315,5.9,5.9,52,0.00,CLR,,0.00,WeatherDisplay:10.37,2013-09-13 02:48:00,
2013-09-12 21:50:00,58.3,40.7,28.97,NNE,22,4.6,4.6,52,0.00,CLR,,0.00,WeatherDisplay:10.37,2013-09-13 02:50:00,
2013-09-12 21:51:00,58.3,40.7,28.97,North,0,4.6,4.6,52,0.00,CLR,,0.00,WeatherDisplay:10.37,2013-09-13 02:51:00,
2013-09-12 21:52:00,58.1,40.6,28.97,NW,315,3.5,3.5,52,0.00,CLR,,0.00,WeatherDisplay:10.37,2013-09-13 02:52:00,
2013-09-12 21:53:00,58.1,40.6,28.97,NNW,338,3.6,3.6,52,0.00,CLR,,0.00,WeatherDisplay:10.37,2013-09-13 02:53:00,
2013-09-12 21:56:00,57.9,40.4,28.97,NNE,22,3.5,3.5,52,0.00,CLR,,0.00,WeatherDisplay:10.37,2013-09-13 02:56:00,
2013-09-12 21:58:00,57.7,40.2,28.97,North,0,4.6,4.6,52,0.00,CLR,,0.00,WeatherDisplay:10.37,2013-09-13 02:58:00,
2013-09-12 21:59:00,57.7,40.2,28.97,NNW,338,3.5,3.5,52,0.00,CLR,,0.00,WeatherDisplay:10.37,2013-09-13 02:59:00,
2013-09-12 22:01:00,57.6,40.5,28.97,NNW,338,4.6,4.6,53,0.00,CLR,,0.00,WeatherDisplay:10.37,2013-09-13 03:01:00,
2013-09-12 22:03:00,57.6,40.5,28.97,NNW,338,4.6,4.6,53,0.00,CLR,,0.00,WeatherDisplay:10.37,2013-09-13 03:03:00,
2013-09-12 22:04:00,57.6,40.5,28.97,NNW,338,4.7,4.7,53,0.00,CLR,,0.00,WeatherDisplay:10.37,2013-09-13 03:04:00,
2013-09-12 22:06:00,57.4,40.4,28.97,NW,315,4.6,4.6,53,0.00,CLR,,0.00,WeatherDisplay:10.37,2013-09-13 03:06:00,
2013-09-12 22:08:00,57.4,40.9,28.97,NW,315,4.6,4.6,54,0.00,CLR,,0.00,WeatherDisplay:10.37,2013-09-13 03:08:00,
2013-09-12 22:09:00,57.2,40.7,28.97,NW,315,4.6,4.6,54,0.00,CLR,,0.00,WeatherDisplay:10.37,2013-09-13 03:09:00,
2013-09-12 22:12:00,57.2,40.7,28.97,NNW,338,4.6,4.6,54,0.00,CLR,,0.00,WeatherDisplay:10.37,2013-09-13 03:12:00,
2013-09-12 22:13:00,57.2,40.7,28.97,NW,315,6.9,6.9,54,0.00,CLR,,0.00,WeatherDisplay:10.37,2013-09-13 03:13:00,
2013-09-12 22:14:00,57.2,40.7,28.97,North,0,5.8,5.8,54,0.00,CLR,,0.00,WeatherDisplay:10.37,2013-09-13 03:14:00,
2013-09-12 22:15:00,57.2,41.2,28.97,North,0,5.9,5.9,55,0.00,CLR,,0.00,WeatherDisplay:10.37,2013-09-13 03:15:00,
2013-09-12 22:17:00,57.2,41.2,28.97,NW,315,4.6,4.6,55,0.00,CLR,,0.00,WeatherDisplay:10.37,2013-09-13 03:17:00,
2013-09-12 22:18:00,57.2,41.2,28.97,NNW,338,4.6,4.6,55,0.00,CLR,,0.00,WeatherDisplay:10.37,2013-09-13 03:18:00,
2013-09-12 22:19:00,57.2,41.2,28.97,North,0,4.6,4.6,55,0.00,CLR,,0.00,WeatherDisplay:10.37,2013-09-13 03:19:00,
2013-09-12 22:20:00,57.0,41.0,28.97,NW,315,4.6,4.6,55,0.00,CLR,,0.00,WeatherDisplay:10.37,2013-09-13 03:20:00,
2013-09-12 22:22:00,57.0,41.0,28.97,NNW,338,5.8,5.8,55,0.00,CLR,,0.00,WeatherDisplay:10.37,2013-09-13 03:22:00,
2013-09-12 22:23:00,56.8,40.8,28.97,NW,315,3.5,3.5,55,0.00,CLR,,0.00,WeatherDisplay:10.37,2013-09-13 03:23:00,
2013-09-12 22:24:00,56.8,40.8,28.97,NW,315,3.8,3.8,55,0.00,CLR,,0.00,WeatherDisplay:10.37,2013-09-13 03:24:00,
2013-09-12 22:25:00,56.8,40.8,28.97,North,0,4.6,4.6,55,0.00,CLR,,0.00,WeatherDisplay:10.37,2013-09-13 03:25:00,
2013-09-12 22:26:00,56.7,40.7,28.97,North,0,3.5,3.5,55,0.00,CLR,,0.00,WeatherDisplay:10.37,2013-09-13 03:26:00,
2013-09-12 22:27:00,56.7,40.7,28.97,NW,315,2.9,2.9,55,0.00,CLR,,0.00,WeatherDisplay:10.37,2013-09-13 03:27:00,
2013-09-12 22:29:00,56.5,40.5,28.97,NNW,338,3.5,3.5,55,0.00,CLR,,0.00,WeatherDisplay:10.37,2013-09-13 03:29:00,
2013-09-12 22:31:00,56.3,40.8,28.97,NNE,22,4.6,4.6,56,0.00,CLR,,0.00,WeatherDisplay:10.37,2013-09-13 03:31:00,
2013-09-12 22:32:00,56.3,40.8,28.97,NNW,338,3.5,3.5,56,0.00,CLR,,0.00,WeatherDisplay:10.37,2013-09-13 03:32:00,
2013-09-12 22:34:00,56.1,40.6,28.97,NW,315,4.6,4.6,56,0.00,CLR,,0.00,WeatherDisplay:10.37,2013-09-13 03:34:00,
2013-09-12 22:37:00,56.1,40.6,28.97,NNW,338,2.9,2.9,56,0.00,CLR,,0.00,WeatherDisplay:10.37,2013-09-13 03:37:00,
2013-09-12 22:40:00,56.1,41.1,28.97,North,0,3.6,3.6,57,0.00,CLR,,0.00,WeatherDisplay:10.37,2013-09-13 03:40:00,
2013-09-12 22:41:00,55.9,40.9,28.97,NW,315,5.8,5.8,57,0.00,CLR,,0.00,WeatherDisplay:10.37,2013-09-13 03:41:00,
2013-09-12 22:42:00,55.9,40.9,28.97,NW,315,2.3,2.3,57,0.00,CLR,,0.00,WeatherDisplay:10.37,2013-09-13 03:42:00,
2013-09-12 22:45:00,55.8,40.7,28.97,NNE,22,2.3,2.4,57,0.00,CLR,,0.00,WeatherDisplay:10.37,2013-09-13 03:45:00,
2013-09-12 22:46:00,55.6,40.6,28.97,North,0,2.4,2.4,57,0.00,CLR,,0.00,WeatherDisplay:10.37,2013-09-13 03:46:00,
2013-09-12 22:47:00,55.6,40.6,28.97,North,0,4.6,4.6,57,0.00,CLR,,0.00,WeatherDisplay:10.37,2013-09-13 03:47:00,
2013-09-12 22:48:00,55.6,41.0,28.97,NNW,338,4.6,4.6,58,0.00,CLR,,0.00,WeatherDisplay:10.37,2013-09-13 03:48:00,
2013-09-12 22:50:00,55.6,41.0,28.97,NW,315,3.5,3.8,58,0.00,CLR,,0.00,WeatherDisplay:10.37,2013-09-13 03:50:00,
2013-09-12 22:52:00,55.4,40.9,28.97,North,0,4.7,4.7,58,0.00,CLR,,0.00,WeatherDisplay:10.37,2013-09-13 03:52:00,
2013-09-12 22:54:00,55.4,40.9,28.97,NNE,22,5.8,5.8,58,0.00,CLR,,0.00,WeatherDisplay:10.37,2013-09-13 03:54:00,
2013-09-12 22:55:00,55.4,41.3,28.94,NW,315,4.6,4.6,59,0.00,CLR,,0.00,WeatherDisplay:10.37,2013-09-13 03:55:00,
2013-09-12 22:57:00,55.4,41.3,28.94,North,0,4.6,4.6,59,0.00,CLR,,0.00,WeatherDisplay:10.37,2013-09-13 03:57:00,
2013-09-12 22:58:00,55.2,41.6,28.94,North,0,4.0,4.0,60,0.00,CLR,,0.00,WeatherDisplay:10.37,2013-09-13 03:58:00,
2013-09-12 23:00:00,55.2,41.1,28.94,WNW,292,4.6,4.6,59,0.00,CLR,,0.00,WeatherDisplay:10.37,2013-09-13 04:00:00,
2013-09-12 23:01:00,55.0,41.0,28.94,NNW,338,3.3,3.3,59,0.00,CLR,,0.00,WeatherDisplay:10.37,2013-09-13 04:01:00,
2013-09-12 23:06:00,55.2,41.6,28.94,NNE,22,4.6,4.6,60,0.00,CLR,,0.00,WeatherDisplay:10.37,2013-09-13 04:06:00,
2013-09-12 23:07:00,55.0,41.4,28.94,NNE,22,3.3,3.3,60,0.00,CLR,,0.00,WeatherDisplay:10.37,2013-09-13 04:07:00,
2013-09-12 23:11:00,55.0,41.8,28.97,North,0,5.8,5.8,61,0.00,CLR,,0.00,WeatherDisplay:10.37,2013-09-13 04:11:00,
2013-09-12 23:12:00,55.0,41.4,28.97,NNE,22,3.1,3.1,60,0.00,CLR,,0.00,WeatherDisplay:10.37,2013-09-13 04:12:00,
2013-09-12 23:16:00,55.2,42.0,28.97,East,90,4.6,4.6,61,0.00,CLR,,0.00,WeatherDisplay:10.37,2013-09-13 04:16:00,
2013-09-12 23:17:00,55.2,41.6,28.97,NNE,22,4.6,4.6,60,0.00,CLR,,0.00,WeatherDisplay:10.37,2013-09-13 04:17:00,
2013-09-12 23:18:00,55.2,41.6,28.97,North,0,4.6,4.6,60,0.00,CLR,,0.00,WeatherDisplay:10.37,2013-09-13 04:18:00,
2013-09-12 23:19:00,55.2,41.6,28.97,NE,45,4.6,4.6,60,0.00,CLR,,0.00,WeatherDisplay:10.37,2013-09-13 04:19:00,
2013-09-12 23:21:00,55.2,41.6,28.97,NNW,338,3.5,3.5,60,0.00,CLR,,0.00,WeatherDisplay:10.37,2013-09-13 04:21:00,
2013-09-12 23:23:00,55.2,41.6,28.97,WNW,292,4.6,4.6,60,0.00,CLR,,0.00,WeatherDisplay:10.37,2013-09-13 04:23:00,
2013-09-12 23:24:00,55.2,41.6,28.97,ENE,68,4.6,4.6,60,0.00,CLR,,0.00,WeatherDisplay:10.37,2013-09-13 04:24:00,
2013-09-12 23:25:00,55.2,41.6,28.97,NNE,22,4.9,4.9,60,0.00,CLR,,0.00,WeatherDisplay:10.37,2013-09-13 04:25:00,
2013-09-12 23:26:00,55.2,41.6,28.97,NNE,22,5.8,5.8,60,0.00,CLR,,0.00,WeatherDisplay:10.37,2013-09-13 04:26:00,
2013-09-12 23:29:00,55.0,41.4,28.97,NNE,22,4.6,4.6,60,0.00,CLR,,0.00,WeatherDisplay:10.37,2013-09-13 04:29:00,
2013-09-12 23:30:00,55.0,41.4,28.97,NNE,22,3.5,3.5,60,0.00,CLR,,0.00,WeatherDisplay:10.37,2013-09-13 04:30:00,
2013-09-12 23:31:00,54.9,41.2,28.97,NNE,22,6.9,6.9,60,0.00,CLR,,0.00,WeatherDisplay:10.37,2013-09-13 04:31:00,
2013-09-12 23:32:00,54.9,41.2,28.97,North,0,3.5,3.5,60,0.00,CLR,,0.00,WeatherDisplay:10.37,2013-09-13 04:32:00,
2013-09-12 23:34:00,54.9,41.2,28.97,NE,45,3.5,3.5,60,0.00,CLR,,0.00,WeatherDisplay:10.37,2013-09-13 04:34:00,
2013-09-12 23:35:00,54.9,41.2,28.97,NNE,22,3.5,3.5,60,0.00,CLR,,0.00,WeatherDisplay:10.37,2013-09-13 04:35:00,
2013-09-12 23:36:00,54.9,41.2,28.97,North,0,5.8,5.8,60,0.00,CLR,,0.00,WeatherDisplay:10.37,2013-09-13 04:36:00,
2013-09-12 23:39:00,54.9,41.2,28.97,NNE,22,3.6,3.6,60,0.00,CLR,,0.00,WeatherDisplay:10.37,2013-09-13 04:39:00,
2013-09-12 23:40:00,54.7,41.1,28.97,NE,45,4.6,4.6,60,0.00,CLR,,0.00,WeatherDisplay:10.37,2013-09-13 04:40:00,
2013-09-12 23:41:00,54.7,41.5,28.97,NNE,22,4.6,4.6,61,0.00,CLR,,0.00,WeatherDisplay:10.37,2013-09-13 04:41:00,
2013-09-12 23:42:00,54.7,41.5,28.97,NE,45,4.6,4.6,61,0.00,CLR,,0.00,WeatherDisplay:10.37,2013-09-13 04:42:00,
2013-09-12 23:45:00,54.5,40.9,28.97,North,0,2.3,2.3,60,0.00,CLR,,0.00,WeatherDisplay:10.37,2013-09-13 04:45:00,
2013-09-12 23:46:00,54.3,40.7,28.97,NE,45,3.5,3.5,60,0.00,CLR,,0.00,WeatherDisplay:10.37,2013-09-13 04:46:00,
2013-09-12 23:47:00,54.3,40.7,28.97,North,0,2.3,2.6,60,0.00,CLR,,0.00,WeatherDisplay:10.37,2013-09-13 04:47:00,
2013-09-12 23:50:00,54.1,41.0,28.97,North,0,2.3,2.3,61,0.00,CLR,,0.00,WeatherDisplay:10.37,2013-09-13 04:50:00,
2013-09-12 23:51:00,54.0,40.8,28.97,NNE,22,2.3,2.3,61,0.00,CLR,,0.00,WeatherDisplay:10.37,2013-09-13 04:51:00,
2013-09-12 23:52:00,54.0,40.8,28.97,NNE,22,3.6,3.6,61,0.00,CLR,,0.00,WeatherDisplay:10.37,2013-09-13 04:52:00,
2013-09-12 23:53:00,53.8,40.6,28.97,NNE,22,3.6,3.6,61,0.00,CLR,,0.00,WeatherDisplay:10.37,2013-09-13 04:53:00,
2013-09-12 23:56:00,53.6,40.9,29.00,NE,45,5.8,5.8,62,0.00,CLR,,0.00,WeatherDisplay:10.37,2013-09-13 04:56:00,
2013-09-12 23:57:00,53.6,40.9,29.00,North,0,4.6,4.6,62,0.00,CLR,,0.00,WeatherDisplay:10.37,2013-09-13 04:57:00,
2013-09-12 23:58:00,53.6,40.9,29.00,NW,315,8.1,8.1,62,0.00,CLR,,0.00,WeatherDisplay:10.37,2013-09-13 04:58:00,